
<gpx xmlns="http://www.topografix.com/GPX/1/1" xmlns:gpxx="http://www.garmin.com/xmlschemas/GpxExtensions/v3" xmlns:wptx1="http://www.garmin.com/xmlschemas/WaypointExtension/v1" xmlns:xsi="http://www.w3.org/2001/XMLSchema-instance" version="1.1" creator="Adze - https://getadze.com/" xsi:schemaLocation="http://www.topografix.com/GPX/1/1 http://www.topografix.com/GPX/1/1/gpx.xsd http://www.garmin.com/xmlschemas/GpxExtensions/v3 http://www8.garmin.com/xmlschemas/GpxExtensionsv3.xsd http://www.garmin.com/xmlschemas/WaypointExtension/v1 http://www8.garmin.com/xmlschemas/WaypointExtensionv1.xsd">
    <metadata>
        <name>Untitled Document</name>
        <link href="http://www.garmin.com"></link>
        <time>2018-03-05T08:16:15.752Z</time>
    </metadata>
    <wpt lon="99.680640" lat="12.899979">
        <ele>91.000000</ele>
        <name>Kaeng Krachan</name>
        <sym>Waypoint</sym>
        <type>user</type>
        <extensions>
            <gpxx:WaypointExtension>
                <gpxx:DisplayMode>SymbolAndName</gpxx:DisplayMode>
            </gpxx:WaypointExtension>
            <wptx1:WaypointExtension>
                <wptx1:DisplayMode>SymbolAndName</wptx1:DisplayMode>
            </wptx1:WaypointExtension>
        </extensions>
    </wpt>
    <trk>
        <name>February 2006 - Saturday</name>
        <extensions>
            <gpxx:TrackExtension>
                <gpxx:DisplayColor>DarkGray</gpxx:DisplayColor>
            </gpxx:TrackExtension>
        </extensions>
        <trkseg>
            <trkpt lon="99.680693" lat="12.899902">
                <ele>74.158813</ele>
                <time>2006-02-25T06:08:00Z</time>
            </trkpt>
            <trkpt lon="99.680607" lat="12.900031">
                <ele>101.075684</ele>
                <time>2006-02-25T06:12:50Z</time>
            </trkpt>
            <trkpt lon="99.680629" lat="12.900052">
                <ele>107.805054</ele>
                <time>2006-02-25T06:18:04Z</time>
            </trkpt>
            <trkpt lon="99.680607" lat="12.900074">
                <ele>107.324341</ele>
                <time>2006-02-25T06:18:09Z</time>
            </trkpt>
            <trkpt lon="99.680414" lat="12.900009">
                <ele>106.843628</ele>
                <time>2006-02-25T06:18:23Z</time>
            </trkpt>
            <trkpt lon="99.679942" lat="12.899902">
                <ele>104.921021</ele>
                <time>2006-02-25T06:18:41Z</time>
            </trkpt>
            <trkpt lon="99.679406" lat="12.899902">
                <ele>104.440430</ele>
                <time>2006-02-25T06:19:02Z</time>
            </trkpt>
            <trkpt lon="99.678547" lat="12.899752">
                <ele>105.882446</ele>
                <time>2006-02-25T06:19:30Z</time>
            </trkpt>
            <trkpt lon="99.678268" lat="12.899559">
                <ele>105.882446</ele>
                <time>2006-02-25T06:19:45Z</time>
            </trkpt>
            <trkpt lon="99.678161" lat="12.899258">
                <ele>107.805054</ele>
                <time>2006-02-25T06:20:01Z</time>
            </trkpt>
            <trkpt lon="99.678118" lat="12.899001">
                <ele>110.208252</ele>
                <time>2006-02-25T06:20:17Z</time>
            </trkpt>
            <trkpt lon="99.678075" lat="12.898765">
                <ele>113.092285</ele>
                <time>2006-02-25T06:20:34Z</time>
            </trkpt>
            <trkpt lon="99.678032" lat="12.898421">
                <ele>114.534180</ele>
                <time>2006-02-25T06:20:54Z</time>
            </trkpt>
            <trkpt lon="99.678118" lat="12.898014">
                <ele>119.821411</ele>
                <time>2006-02-25T06:21:16Z</time>
            </trkpt>
            <trkpt lon="99.678462" lat="12.897820">
                <ele>122.705444</ele>
                <time>2006-02-25T06:21:36Z</time>
            </trkpt>
            <trkpt lon="99.678891" lat="12.897713">
                <ele>124.628052</ele>
                <time>2006-02-25T06:21:54Z</time>
            </trkpt>
            <trkpt lon="99.679599" lat="12.897477">
                <ele>122.705444</ele>
                <time>2006-02-25T06:22:12Z</time>
            </trkpt>
            <trkpt lon="99.680393" lat="12.897112">
                <ele>123.186157</ele>
                <time>2006-02-25T06:22:29Z</time>
            </trkpt>
            <trkpt lon="99.680822" lat="12.897198">
                <ele>119.821411</ele>
                <time>2006-02-25T06:22:37Z</time>
            </trkpt>
            <trkpt lon="99.681830" lat="12.898057">
                <ele>108.766235</ele>
                <time>2006-02-25T06:22:53Z</time>
            </trkpt>
            <trkpt lon="99.682496" lat="12.898679">
                <ele>103.479004</ele>
                <time>2006-02-25T06:23:05Z</time>
            </trkpt>
            <trkpt lon="99.682732" lat="12.898657">
                <ele>102.998291</ele>
                <time>2006-02-25T06:23:11Z</time>
            </trkpt>
            <trkpt lon="99.683526" lat="12.898035">
                <ele>103.479004</ele>
                <time>2006-02-25T06:23:31Z</time>
            </trkpt>
            <trkpt lon="99.683568" lat="12.898014">
                <ele>103.479004</ele>
                <time>2006-02-25T06:23:32Z</time>
            </trkpt>
            <trkpt lon="99.684212" lat="12.897735">
                <ele>104.440430</ele>
                <time>2006-02-25T06:23:49Z</time>
            </trkpt>
            <trkpt lon="99.684856" lat="12.897348">
                <ele>107.324341</ele>
                <time>2006-02-25T06:24:09Z</time>
            </trkpt>
            <trkpt lon="99.685628" lat="12.896876">
                <ele>108.766235</ele>
                <time>2006-02-25T06:24:34Z</time>
            </trkpt>
            <trkpt lon="99.686251" lat="12.896683">
                <ele>111.169556</ele>
                <time>2006-02-25T06:24:57Z</time>
            </trkpt>
            <trkpt lon="99.686980" lat="12.896490">
                <ele>114.534180</ele>
                <time>2006-02-25T06:25:18Z</time>
            </trkpt>
            <trkpt lon="99.687645" lat="12.896211">
                <ele>113.572998</ele>
                <time>2006-02-25T06:25:34Z</time>
            </trkpt>
            <trkpt lon="99.688783" lat="12.895825">
                <ele>112.611572</ele>
                <time>2006-02-25T06:25:50Z</time>
            </trkpt>
            <trkpt lon="99.688997" lat="12.895761">
                <ele>112.130981</ele>
                <time>2006-02-25T06:25:53Z</time>
            </trkpt>
            <trkpt lon="99.689362" lat="12.895868">
                <ele>108.285645</ele>
                <time>2006-02-25T06:25:59Z</time>
            </trkpt>
            <trkpt lon="99.689469" lat="12.895954">
                <ele>106.843628</ele>
                <time>2006-02-25T06:26:01Z</time>
            </trkpt>
            <trkpt lon="99.689856" lat="12.896233">
                <ele>103.959717</ele>
                <time>2006-02-25T06:26:09Z</time>
            </trkpt>
            <trkpt lon="99.690542" lat="12.896404">
                <ele>99.633789</ele>
                <time>2006-02-25T06:26:23Z</time>
            </trkpt>
            <trkpt lon="99.690800" lat="12.896447">
                <ele>96.269287</ele>
                <time>2006-02-25T06:26:36Z</time>
            </trkpt>
            <trkpt lon="99.690886" lat="12.896469">
                <ele>95.307739</ele>
                <time>2006-02-25T06:26:49Z</time>
            </trkpt>
            <trkpt lon="99.690971" lat="12.896512">
                <ele>95.307739</ele>
                <time>2006-02-25T06:26:56Z</time>
            </trkpt>
            <trkpt lon="99.691036" lat="12.896554">
                <ele>94.827148</ele>
                <time>2006-02-25T06:27:02Z</time>
            </trkpt>
            <trkpt lon="99.691272" lat="12.896683">
                <ele>93.385132</ele>
                <time>2006-02-25T06:27:09Z</time>
            </trkpt>
            <trkpt lon="99.691422" lat="12.896705">
                <ele>92.904541</ele>
                <time>2006-02-25T06:27:13Z</time>
            </trkpt>
            <trkpt lon="99.691787" lat="12.896426">
                <ele>92.423950</ele>
                <time>2006-02-25T06:27:26Z</time>
            </trkpt>
            <trkpt lon="99.692216" lat="12.895610">
                <ele>90.501343</ele>
                <time>2006-02-25T06:27:44Z</time>
            </trkpt>
            <trkpt lon="99.692645" lat="12.894409">
                <ele>86.175293</ele>
                <time>2006-02-25T06:28:01Z</time>
            </trkpt>
            <trkpt lon="99.692988" lat="12.893379">
                <ele>88.098022</ele>
                <time>2006-02-25T06:28:18Z</time>
            </trkpt>
            <trkpt lon="99.693267" lat="12.892392">
                <ele>83.771973</ele>
                <time>2006-02-25T06:28:33Z</time>
            </trkpt>
            <trkpt lon="99.693654" lat="12.891083">
                <ele>78.004028</ele>
                <time>2006-02-25T06:28:46Z</time>
            </trkpt>
            <trkpt lon="99.694018" lat="12.889903">
                <ele>78.484741</ele>
                <time>2006-02-25T06:29:01Z</time>
            </trkpt>
            <trkpt lon="99.694469" lat="12.888851">
                <ele>79.926636</ele>
                <time>2006-02-25T06:29:18Z</time>
            </trkpt>
            <trkpt lon="99.694512" lat="12.888808">
                <ele>79.926636</ele>
                <time>2006-02-25T06:29:19Z</time>
            </trkpt>
            <trkpt lon="99.695692" lat="12.887800">
                <ele>76.562134</ele>
                <time>2006-02-25T06:29:42Z</time>
            </trkpt>
            <trkpt lon="99.696679" lat="12.886984">
                <ele>75.120239</ele>
                <time>2006-02-25T06:30:02Z</time>
            </trkpt>
            <trkpt lon="99.696937" lat="12.886770">
                <ele>72.236206</ele>
                <time>2006-02-25T06:30:13Z</time>
            </trkpt>
            <trkpt lon="99.697087" lat="12.886662">
                <ele>71.274902</ele>
                <time>2006-02-25T06:30:18Z</time>
            </trkpt>
            <trkpt lon="99.697065" lat="12.886448">
                <ele>69.352295</ele>
                <time>2006-02-25T06:30:26Z</time>
            </trkpt>
            <trkpt lon="99.697044" lat="12.886298">
                <ele>67.910278</ele>
                <time>2006-02-25T06:30:52Z</time>
            </trkpt>
            <trkpt lon="99.697022" lat="12.886233">
                <ele>67.910278</ele>
                <time>2006-02-25T06:30:54Z</time>
            </trkpt>
            <trkpt lon="99.696572" lat="12.885482">
                <ele>66.468262</ele>
                <time>2006-02-25T06:31:09Z</time>
            </trkpt>
            <trkpt lon="99.695885" lat="12.884259">
                <ele>64.545654</ele>
                <time>2006-02-25T06:31:29Z</time>
            </trkpt>
            <trkpt lon="99.695799" lat="12.884088">
                <ele>64.545654</ele>
                <time>2006-02-25T06:31:32Z</time>
            </trkpt>
            <trkpt lon="99.695349" lat="12.883229">
                <ele>61.181030</ele>
                <time>2006-02-25T06:31:46Z</time>
            </trkpt>
            <trkpt lon="99.695156" lat="12.882392">
                <ele>58.777710</ele>
                <time>2006-02-25T06:32:02Z</time>
            </trkpt>
            <trkpt lon="99.694920" lat="12.881534">
                <ele>59.258423</ele>
                <time>2006-02-25T06:32:19Z</time>
            </trkpt>
            <trkpt lon="99.694877" lat="12.881491">
                <ele>59.258423</ele>
                <time>2006-02-25T06:32:20Z</time>
            </trkpt>
            <trkpt lon="99.694619" lat="12.881062">
                <ele>59.258423</ele>
                <time>2006-02-25T06:32:33Z</time>
            </trkpt>
            <trkpt lon="99.694512" lat="12.880998">
                <ele>58.777710</ele>
                <time>2006-02-25T06:32:36Z</time>
            </trkpt>
            <trkpt lon="99.694405" lat="12.880955">
                <ele>58.777710</ele>
                <time>2006-02-25T06:32:39Z</time>
            </trkpt>
            <trkpt lon="99.693568" lat="12.880912">
                <ele>57.816528</ele>
                <time>2006-02-25T06:32:59Z</time>
            </trkpt>
            <trkpt lon="99.692881" lat="12.880805">
                <ele>57.816528</ele>
                <time>2006-02-25T06:33:18Z</time>
            </trkpt>
            <trkpt lon="99.692194" lat="12.880740">
                <ele>58.297119</ele>
                <time>2006-02-25T06:33:36Z</time>
            </trkpt>
            <trkpt lon="99.691572" lat="12.880697">
                <ele>58.297119</ele>
                <time>2006-02-25T06:33:54Z</time>
            </trkpt>
            <trkpt lon="99.690971" lat="12.880869">
                <ele>59.258423</ele>
                <time>2006-02-25T06:34:12Z</time>
            </trkpt>
            <trkpt lon="99.690864" lat="12.880912">
                <ele>60.219727</ele>
                <time>2006-02-25T06:34:20Z</time>
            </trkpt>
            <trkpt lon="99.690607" lat="12.880890">
                <ele>59.739136</ele>
                <time>2006-02-25T06:34:35Z</time>
            </trkpt>
            <trkpt lon="99.690542" lat="12.880890">
                <ele>60.219727</ele>
                <time>2006-02-25T06:34:37Z</time>
            </trkpt>
            <trkpt lon="99.690413" lat="12.880740">
                <ele>60.700317</ele>
                <time>2006-02-25T06:34:43Z</time>
            </trkpt>
            <trkpt lon="99.690027" lat="12.880440">
                <ele>61.181030</ele>
                <time>2006-02-25T06:34:55Z</time>
            </trkpt>
            <trkpt lon="99.689748" lat="12.880247">
                <ele>63.584351</ele>
                <time>2006-02-25T06:35:10Z</time>
            </trkpt>
            <trkpt lon="99.689512" lat="12.880075">
                <ele>63.103638</ele>
                <time>2006-02-25T06:35:21Z</time>
            </trkpt>
            <trkpt lon="99.689190" lat="12.880075">
                <ele>64.065063</ele>
                <time>2006-02-25T06:35:34Z</time>
            </trkpt>
            <trkpt lon="99.688890" lat="12.880118">
                <ele>62.622925</ele>
                <time>2006-02-25T06:35:50Z</time>
            </trkpt>
            <trkpt lon="99.688568" lat="12.879989">
                <ele>65.026367</ele>
                <time>2006-02-25T06:36:06Z</time>
            </trkpt>
            <trkpt lon="99.688332" lat="12.879882">
                <ele>68.871582</ele>
                <time>2006-02-25T06:36:22Z</time>
            </trkpt>
            <trkpt lon="99.688139" lat="12.879775">
                <ele>71.274902</ele>
                <time>2006-02-25T06:36:33Z</time>
            </trkpt>
            <trkpt lon="99.687967" lat="12.879710">
                <ele>73.197632</ele>
                <time>2006-02-25T06:36:48Z</time>
            </trkpt>
            <trkpt lon="99.688010" lat="12.879710">
                <ele>73.197632</ele>
                <time>2006-02-25T06:37:03Z</time>
            </trkpt>
            <trkpt lon="99.688053" lat="12.879732">
                <ele>73.197632</ele>
                <time>2006-02-25T06:37:11Z</time>
            </trkpt>
            <trkpt lon="99.688354" lat="12.879882">
                <ele>71.755493</ele>
                <time>2006-02-25T06:37:30Z</time>
            </trkpt>
            <trkpt lon="99.688375" lat="12.879903">
                <ele>71.755493</ele>
                <time>2006-02-25T06:37:32Z</time>
            </trkpt>
            <trkpt lon="99.688418" lat="12.879925">
                <ele>71.274902</ele>
                <time>2006-02-25T06:37:43Z</time>
            </trkpt>
            <trkpt lon="99.688654" lat="12.880011">
                <ele>68.871582</ele>
                <time>2006-02-25T06:38:02Z</time>
            </trkpt>
            <trkpt lon="99.688911" lat="12.880118">
                <ele>66.468262</ele>
                <time>2006-02-25T06:38:15Z</time>
            </trkpt>
            <trkpt lon="99.689362" lat="12.880075">
                <ele>65.987671</ele>
                <time>2006-02-25T06:38:33Z</time>
            </trkpt>
            <trkpt lon="99.689384" lat="12.880054">
                <ele>65.507080</ele>
                <time>2006-02-25T06:38:35Z</time>
            </trkpt>
            <trkpt lon="99.689641" lat="12.879753">
                <ele>65.507080</ele>
                <time>2006-02-25T06:38:47Z</time>
            </trkpt>
            <trkpt lon="99.689684" lat="12.879667">
                <ele>65.507080</ele>
                <time>2006-02-25T06:38:49Z</time>
            </trkpt>
            <trkpt lon="99.689984" lat="12.879539">
                <ele>64.065063</ele>
                <time>2006-02-25T06:38:57Z</time>
            </trkpt>
            <trkpt lon="99.690156" lat="12.879174">
                <ele>63.103638</ele>
                <time>2006-02-25T06:39:08Z</time>
            </trkpt>
            <trkpt lon="99.690263" lat="12.878723">
                <ele>64.065063</ele>
                <time>2006-02-25T06:39:22Z</time>
            </trkpt>
            <trkpt lon="99.690371" lat="12.878230">
                <ele>65.507080</ele>
                <time>2006-02-25T06:39:37Z</time>
            </trkpt>
            <trkpt lon="99.690478" lat="12.877843">
                <ele>66.948975</ele>
                <time>2006-02-25T06:39:53Z</time>
            </trkpt>
            <trkpt lon="99.690564" lat="12.877522">
                <ele>68.390869</ele>
                <time>2006-02-25T06:40:07Z</time>
            </trkpt>
            <trkpt lon="99.690714" lat="12.877007">
                <ele>70.313477</ele>
                <time>2006-02-25T06:40:26Z</time>
            </trkpt>
            <trkpt lon="99.690778" lat="12.876427">
                <ele>70.794189</ele>
                <time>2006-02-25T06:40:42Z</time>
            </trkpt>
            <trkpt lon="99.690950" lat="12.875655">
                <ele>70.313477</ele>
                <time>2006-02-25T06:40:59Z</time>
            </trkpt>
            <trkpt lon="99.691079" lat="12.875140">
                <ele>69.832886</ele>
                <time>2006-02-25T06:41:10Z</time>
            </trkpt>
            <trkpt lon="99.691551" lat="12.874432">
                <ele>67.910278</ele>
                <time>2006-02-25T06:41:26Z</time>
            </trkpt>
            <trkpt lon="99.691722" lat="12.874067">
                <ele>67.429688</ele>
                <time>2006-02-25T06:41:35Z</time>
            </trkpt>
            <trkpt lon="99.691787" lat="12.873831">
                <ele>69.832886</ele>
                <time>2006-02-25T06:41:46Z</time>
            </trkpt>
            <trkpt lon="99.691851" lat="12.873659">
                <ele>69.832886</ele>
                <time>2006-02-25T06:42:00Z</time>
            </trkpt>
            <trkpt lon="99.691894" lat="12.873595">
                <ele>70.794189</ele>
                <time>2006-02-25T06:42:13Z</time>
            </trkpt>
            <trkpt lon="99.691916" lat="12.873595">
                <ele>69.352295</ele>
                <time>2006-02-25T06:42:31Z</time>
            </trkpt>
            <trkpt lon="99.692280" lat="12.873573">
                <ele>67.910278</ele>
                <time>2006-02-25T06:42:43Z</time>
            </trkpt>
            <trkpt lon="99.692774" lat="12.873573">
                <ele>66.948975</ele>
                <time>2006-02-25T06:42:58Z</time>
            </trkpt>
            <trkpt lon="99.693246" lat="12.873573">
                <ele>64.065063</ele>
                <time>2006-02-25T06:43:16Z</time>
            </trkpt>
            <trkpt lon="99.693396" lat="12.873552">
                <ele>61.181030</ele>
                <time>2006-02-25T06:43:23Z</time>
            </trkpt>
            <trkpt lon="99.693396" lat="12.873337">
                <ele>62.622925</ele>
                <time>2006-02-25T06:43:34Z</time>
            </trkpt>
            <trkpt lon="99.693460" lat="12.873037">
                <ele>62.622925</ele>
                <time>2006-02-25T06:43:49Z</time>
            </trkpt>
            <trkpt lon="99.693482" lat="12.872930">
                <ele>62.142334</ele>
                <time>2006-02-25T06:43:54Z</time>
            </trkpt>
            <trkpt lon="99.693482" lat="12.872930">
                <ele>63.584351</ele>
                <time>2006-02-25T06:44:06Z</time>
            </trkpt>
            <trkpt lon="99.693503" lat="12.872908">
                <ele>63.103638</ele>
                <time>2006-02-25T06:44:37Z</time>
            </trkpt>
            <trkpt lon="99.693503" lat="12.872887">
                <ele>61.661743</ele>
                <time>2006-02-25T06:44:46Z</time>
            </trkpt>
            <trkpt lon="99.693546" lat="12.872565">
                <ele>59.258423</ele>
                <time>2006-02-25T06:44:57Z</time>
            </trkpt>
            <trkpt lon="99.693589" lat="12.872350">
                <ele>58.777710</ele>
                <time>2006-02-25T06:45:02Z</time>
            </trkpt>
            <trkpt lon="99.693675" lat="12.872050">
                <ele>57.335815</ele>
                <time>2006-02-25T06:45:09Z</time>
            </trkpt>
            <trkpt lon="99.693761" lat="12.871621">
                <ele>57.816528</ele>
                <time>2006-02-25T06:45:23Z</time>
            </trkpt>
            <trkpt lon="99.693890" lat="12.871063">
                <ele>58.777710</ele>
                <time>2006-02-25T06:45:39Z</time>
            </trkpt>
            <trkpt lon="99.693997" lat="12.870719">
                <ele>59.739136</ele>
                <time>2006-02-25T06:45:55Z</time>
            </trkpt>
            <trkpt lon="99.693997" lat="12.870719">
                <ele>58.777710</ele>
                <time>2006-02-25T06:46:08Z</time>
            </trkpt>
            <trkpt lon="99.693997" lat="12.870741">
                <ele>53.971191</ele>
                <time>2006-02-25T06:46:52Z</time>
            </trkpt>
            <trkpt lon="99.693975" lat="12.870762">
                <ele>53.971191</ele>
                <time>2006-02-25T06:47:40Z</time>
            </trkpt>
            <trkpt lon="99.693997" lat="12.870741">
                <ele>59.258423</ele>
                <time>2006-02-25T06:54:33Z</time>
            </trkpt>
            <trkpt lon="99.693997" lat="12.870719">
                <ele>55.893799</ele>
                <time>2006-02-25T06:56:44Z</time>
            </trkpt>
            <trkpt lon="99.693975" lat="12.870741">
                <ele>55.413086</ele>
                <time>2006-02-25T06:57:55Z</time>
            </trkpt>
            <trkpt lon="99.693911" lat="12.870977">
                <ele>54.932373</ele>
                <time>2006-02-25T06:58:02Z</time>
            </trkpt>
            <trkpt lon="99.693718" lat="12.871792">
                <ele>54.451782</ele>
                <time>2006-02-25T06:58:16Z</time>
            </trkpt>
            <trkpt lon="99.693654" lat="12.871985">
                <ele>53.971191</ele>
                <time>2006-02-25T06:58:19Z</time>
            </trkpt>
            <trkpt lon="99.693632" lat="12.872179">
                <ele>54.451782</ele>
                <time>2006-02-25T06:58:22Z</time>
            </trkpt>
            <trkpt lon="99.693589" lat="12.872350">
                <ele>55.413086</ele>
                <time>2006-02-25T06:58:25Z</time>
            </trkpt>
            <trkpt lon="99.693482" lat="12.872972">
                <ele>58.777710</ele>
                <time>2006-02-25T06:58:40Z</time>
            </trkpt>
            <trkpt lon="99.693418" lat="12.873209">
                <ele>59.258423</ele>
                <time>2006-02-25T06:58:53Z</time>
            </trkpt>
            <trkpt lon="99.693418" lat="12.873230">
                <ele>61.181030</ele>
                <time>2006-02-25T06:59:16Z</time>
            </trkpt>
            <trkpt lon="99.693418" lat="12.873230">
                <ele>61.181030</ele>
                <time>2006-02-25T06:59:51Z</time>
            </trkpt>
            <trkpt lon="99.693418" lat="12.873209">
                <ele>60.700317</ele>
                <time>2006-02-25T07:00:29Z</time>
            </trkpt>
            <trkpt lon="99.693439" lat="12.873144">
                <ele>63.584351</ele>
                <time>2006-02-25T07:04:23Z</time>
            </trkpt>
            <trkpt lon="99.693482" lat="12.873015">
                <ele>62.622925</ele>
                <time>2006-02-25T07:04:36Z</time>
            </trkpt>
            <trkpt lon="99.693568" lat="12.872500">
                <ele>60.219727</ele>
                <time>2006-02-25T07:04:51Z</time>
            </trkpt>
            <trkpt lon="99.693675" lat="12.872028">
                <ele>58.777710</ele>
                <time>2006-02-25T07:05:02Z</time>
            </trkpt>
            <trkpt lon="99.693804" lat="12.871363">
                <ele>56.855103</ele>
                <time>2006-02-25T07:05:17Z</time>
            </trkpt>
            <trkpt lon="99.694018" lat="12.870569">
                <ele>59.739136</ele>
                <time>2006-02-25T07:05:35Z</time>
            </trkpt>
            <trkpt lon="99.694340" lat="12.869883">
                <ele>59.258423</ele>
                <time>2006-02-25T07:05:52Z</time>
            </trkpt>
            <trkpt lon="99.694512" lat="12.869239">
                <ele>61.181030</ele>
                <time>2006-02-25T07:06:08Z</time>
            </trkpt>
            <trkpt lon="99.694512" lat="12.869174">
                <ele>61.181030</ele>
                <time>2006-02-25T07:06:10Z</time>
            </trkpt>
            <trkpt lon="99.694533" lat="12.868917">
                <ele>61.661743</ele>
                <time>2006-02-25T07:06:16Z</time>
            </trkpt>
            <trkpt lon="99.694555" lat="12.868788">
                <ele>61.661743</ele>
                <time>2006-02-25T07:06:19Z</time>
            </trkpt>
            <trkpt lon="99.694684" lat="12.868531">
                <ele>60.219727</ele>
                <time>2006-02-25T07:06:25Z</time>
            </trkpt>
            <trkpt lon="99.694748" lat="12.868187">
                <ele>61.181030</ele>
                <time>2006-02-25T07:06:35Z</time>
            </trkpt>
            <trkpt lon="99.694426" lat="12.867672">
                <ele>63.584351</ele>
                <time>2006-02-25T07:06:55Z</time>
            </trkpt>
            <trkpt lon="99.694061" lat="12.867157">
                <ele>65.987671</ele>
                <time>2006-02-25T07:07:13Z</time>
            </trkpt>
            <trkpt lon="99.693933" lat="12.866943">
                <ele>65.507080</ele>
                <time>2006-02-25T07:07:20Z</time>
            </trkpt>
            <trkpt lon="99.693890" lat="12.866986">
                <ele>65.507080</ele>
                <time>2006-02-25T07:07:24Z</time>
            </trkpt>
            <trkpt lon="99.694211" lat="12.867050">
                <ele>65.026367</ele>
                <time>2006-02-25T07:07:36Z</time>
            </trkpt>
            <trkpt lon="99.694383" lat="12.867029">
                <ele>65.026367</ele>
                <time>2006-02-25T07:07:40Z</time>
            </trkpt>
            <trkpt lon="99.694619" lat="12.867007">
                <ele>66.468262</ele>
                <time>2006-02-25T07:07:44Z</time>
            </trkpt>
            <trkpt lon="99.694748" lat="12.866964">
                <ele>66.948975</ele>
                <time>2006-02-25T07:07:46Z</time>
            </trkpt>
            <trkpt lon="99.694877" lat="12.866857">
                <ele>66.468262</ele>
                <time>2006-02-25T07:07:49Z</time>
            </trkpt>
            <trkpt lon="99.694920" lat="12.866793">
                <ele>65.987671</ele>
                <time>2006-02-25T07:07:51Z</time>
            </trkpt>
            <trkpt lon="99.695048" lat="12.866664">
                <ele>64.545654</ele>
                <time>2006-02-25T07:07:55Z</time>
            </trkpt>
            <trkpt lon="99.695199" lat="12.866578">
                <ele>62.622925</ele>
                <time>2006-02-25T07:07:58Z</time>
            </trkpt>
            <trkpt lon="99.695671" lat="12.865999">
                <ele>57.335815</ele>
                <time>2006-02-25T07:08:09Z</time>
            </trkpt>
            <trkpt lon="99.696229" lat="12.865441">
                <ele>55.413086</ele>
                <time>2006-02-25T07:08:23Z</time>
            </trkpt>
            <trkpt lon="99.696250" lat="12.865419">
                <ele>55.893799</ele>
                <time>2006-02-25T07:08:24Z</time>
            </trkpt>
            <trkpt lon="99.696636" lat="12.865398">
                <ele>52.048584</ele>
                <time>2006-02-25T07:08:35Z</time>
            </trkpt>
            <trkpt lon="99.697344" lat="12.865441">
                <ele>47.722534</ele>
                <time>2006-02-25T07:08:48Z</time>
            </trkpt>
            <trkpt lon="99.697559" lat="12.865441">
                <ele>51.567871</ele>
                <time>2006-02-25T07:09:02Z</time>
            </trkpt>
            <trkpt lon="99.697602" lat="12.865441">
                <ele>51.567871</ele>
                <time>2006-02-25T07:09:16Z</time>
            </trkpt>
            <trkpt lon="99.697602" lat="12.865441">
                <ele>50.606567</ele>
                <time>2006-02-25T07:09:38Z</time>
            </trkpt>
            <trkpt lon="99.697602" lat="12.865441">
                <ele>49.164551</ele>
                <time>2006-02-25T07:10:00Z</time>
            </trkpt>
            <trkpt lon="99.697602" lat="12.865441">
                <ele>50.606567</ele>
                <time>2006-02-25T07:11:51Z</time>
            </trkpt>
            <trkpt lon="99.697709" lat="12.865441">
                <ele>55.413086</ele>
                <time>2006-02-25T07:24:00Z</time>
            </trkpt>
            <trkpt lon="99.697924" lat="12.865441">
                <ele>54.932373</ele>
                <time>2006-02-25T07:24:14Z</time>
            </trkpt>
            <trkpt lon="99.698310" lat="12.865505">
                <ele>53.971191</ele>
                <time>2006-02-25T07:24:30Z</time>
            </trkpt>
            <trkpt lon="99.698889" lat="12.865527">
                <ele>52.048584</ele>
                <time>2006-02-25T07:24:48Z</time>
            </trkpt>
            <trkpt lon="99.699597" lat="12.865634">
                <ele>52.048584</ele>
                <time>2006-02-25T07:25:07Z</time>
            </trkpt>
            <trkpt lon="99.700305" lat="12.865655">
                <ele>52.529175</ele>
                <time>2006-02-25T07:25:24Z</time>
            </trkpt>
            <trkpt lon="99.701250" lat="12.865741">
                <ele>53.009766</ele>
                <time>2006-02-25T07:25:45Z</time>
            </trkpt>
            <trkpt lon="99.701958" lat="12.865849">
                <ele>54.451782</ele>
                <time>2006-02-25T07:26:03Z</time>
            </trkpt>
            <trkpt lon="99.702258" lat="12.865977">
                <ele>53.490479</ele>
                <time>2006-02-25T07:26:14Z</time>
            </trkpt>
            <trkpt lon="99.702580" lat="12.866127">
                <ele>52.529175</ele>
                <time>2006-02-25T07:26:26Z</time>
            </trkpt>
            <trkpt lon="99.702644" lat="12.866149">
                <ele>51.567871</ele>
                <time>2006-02-25T07:26:33Z</time>
            </trkpt>
            <trkpt lon="99.702687" lat="12.866170">
                <ele>52.048584</ele>
                <time>2006-02-25T07:26:37Z</time>
            </trkpt>
            <trkpt lon="99.703095" lat="12.866299">
                <ele>51.567871</ele>
                <time>2006-02-25T07:26:52Z</time>
            </trkpt>
            <trkpt lon="99.703524" lat="12.866535">
                <ele>52.048584</ele>
                <time>2006-02-25T07:27:05Z</time>
            </trkpt>
            <trkpt lon="99.703825" lat="12.866943">
                <ele>49.645264</ele>
                <time>2006-02-25T07:27:18Z</time>
            </trkpt>
            <trkpt lon="99.704490" lat="12.867715">
                <ele>47.722534</ele>
                <time>2006-02-25T07:27:37Z</time>
            </trkpt>
            <trkpt lon="99.704962" lat="12.868574">
                <ele>48.203369</ele>
                <time>2006-02-25T07:27:55Z</time>
            </trkpt>
            <trkpt lon="99.705305" lat="12.869325">
                <ele>50.125977</ele>
                <time>2006-02-25T07:28:13Z</time>
            </trkpt>
            <trkpt lon="99.705691" lat="12.870183">
                <ele>52.529175</ele>
                <time>2006-02-25T07:28:34Z</time>
            </trkpt>
            <trkpt lon="99.705713" lat="12.870269">
                <ele>52.048584</ele>
                <time>2006-02-25T07:28:36Z</time>
            </trkpt>
            <trkpt lon="99.705734" lat="12.870355">
                <ele>52.048584</ele>
                <time>2006-02-25T07:28:38Z</time>
            </trkpt>
            <trkpt lon="99.705713" lat="12.870526">
                <ele>54.932373</ele>
                <time>2006-02-25T07:28:46Z</time>
            </trkpt>
            <trkpt lon="99.705799" lat="12.870548">
                <ele>54.932373</ele>
                <time>2006-02-25T07:28:50Z</time>
            </trkpt>
            <trkpt lon="99.706442" lat="12.870526">
                <ele>54.451782</ele>
                <time>2006-02-25T07:29:06Z</time>
            </trkpt>
            <trkpt lon="99.707086" lat="12.870376">
                <ele>53.490479</ele>
                <time>2006-02-25T07:29:18Z</time>
            </trkpt>
            <trkpt lon="99.707344" lat="12.870140">
                <ele>52.529175</ele>
                <time>2006-02-25T07:29:24Z</time>
            </trkpt>
            <trkpt lon="99.707837" lat="12.869239">
                <ele>50.606567</ele>
                <time>2006-02-25T07:29:41Z</time>
            </trkpt>
            <trkpt lon="99.708309" lat="12.868574">
                <ele>51.567871</ele>
                <time>2006-02-25T07:29:58Z</time>
            </trkpt>
            <trkpt lon="99.708824" lat="12.868059">
                <ele>53.490479</ele>
                <time>2006-02-25T07:30:16Z</time>
            </trkpt>
            <trkpt lon="99.709232" lat="12.867737">
                <ele>53.971191</ele>
                <time>2006-02-25T07:30:27Z</time>
            </trkpt>
            <trkpt lon="99.710112" lat="12.867372">
                <ele>53.971191</ele>
                <time>2006-02-25T07:30:48Z</time>
            </trkpt>
            <trkpt lon="99.710691" lat="12.867157">
                <ele>53.971191</ele>
                <time>2006-02-25T07:31:04Z</time>
            </trkpt>
            <trkpt lon="99.710841" lat="12.867093">
                <ele>53.971191</ele>
                <time>2006-02-25T07:31:08Z</time>
            </trkpt>
            <trkpt lon="99.710991" lat="12.867179">
                <ele>53.009766</ele>
                <time>2006-02-25T07:31:13Z</time>
            </trkpt>
            <trkpt lon="99.711077" lat="12.867372">
                <ele>53.009766</ele>
                <time>2006-02-25T07:31:20Z</time>
            </trkpt>
            <trkpt lon="99.711056" lat="12.867587">
                <ele>54.451782</ele>
                <time>2006-02-25T07:31:28Z</time>
            </trkpt>
            <trkpt lon="99.711335" lat="12.867930">
                <ele>53.009766</ele>
                <time>2006-02-25T07:31:41Z</time>
            </trkpt>
            <trkpt lon="99.711335" lat="12.868209">
                <ele>53.971191</ele>
                <time>2006-02-25T07:31:52Z</time>
            </trkpt>
            <trkpt lon="99.711206" lat="12.868381">
                <ele>54.451782</ele>
                <time>2006-02-25T07:31:59Z</time>
            </trkpt>
            <trkpt lon="99.711313" lat="12.868574">
                <ele>54.451782</ele>
                <time>2006-02-25T07:32:09Z</time>
            </trkpt>
            <trkpt lon="99.711571" lat="12.868810">
                <ele>53.971191</ele>
                <time>2006-02-25T07:32:23Z</time>
            </trkpt>
            <trkpt lon="99.711699" lat="12.869132">
                <ele>57.816528</ele>
                <time>2006-02-25T07:32:37Z</time>
            </trkpt>
            <trkpt lon="99.711914" lat="12.869475">
                <ele>57.816528</ele>
                <time>2006-02-25T07:32:51Z</time>
            </trkpt>
            <trkpt lon="99.711978" lat="12.869947">
                <ele>60.219727</ele>
                <time>2006-02-25T07:33:07Z</time>
            </trkpt>
            <trkpt lon="99.711957" lat="12.870011">
                <ele>60.700317</ele>
                <time>2006-02-25T07:33:10Z</time>
            </trkpt>
            <trkpt lon="99.712107" lat="12.870269">
                <ele>60.700317</ele>
                <time>2006-02-25T07:33:21Z</time>
            </trkpt>
            <trkpt lon="99.712365" lat="12.870698">
                <ele>65.026367</ele>
                <time>2006-02-25T07:33:39Z</time>
            </trkpt>
            <trkpt lon="99.712687" lat="12.871149">
                <ele>65.507080</ele>
                <time>2006-02-25T07:33:59Z</time>
            </trkpt>
            <trkpt lon="99.712880" lat="12.871428">
                <ele>67.910278</ele>
                <time>2006-02-25T07:34:17Z</time>
            </trkpt>
            <trkpt lon="99.712901" lat="12.871449">
                <ele>67.910278</ele>
                <time>2006-02-25T07:34:19Z</time>
            </trkpt>
            <trkpt lon="99.712944" lat="12.871513">
                <ele>68.871582</ele>
                <time>2006-02-25T07:34:25Z</time>
            </trkpt>
            <trkpt lon="99.712965" lat="12.871535">
                <ele>69.352295</ele>
                <time>2006-02-25T07:34:27Z</time>
            </trkpt>
            <trkpt lon="99.712965" lat="12.871513">
                <ele>70.313477</ele>
                <time>2006-02-25T07:34:37Z</time>
            </trkpt>
            <trkpt lon="99.712794" lat="12.871449">
                <ele>70.313477</ele>
                <time>2006-02-25T07:34:45Z</time>
            </trkpt>
            <trkpt lon="99.712751" lat="12.871621">
                <ele>71.755493</ele>
                <time>2006-02-25T07:34:55Z</time>
            </trkpt>
            <trkpt lon="99.712751" lat="12.871664">
                <ele>72.236206</ele>
                <time>2006-02-25T07:34:57Z</time>
            </trkpt>
            <trkpt lon="99.712601" lat="12.871985">
                <ele>73.197632</ele>
                <time>2006-02-25T07:35:13Z</time>
            </trkpt>
            <trkpt lon="99.712214" lat="12.872479">
                <ele>72.716919</ele>
                <time>2006-02-25T07:35:30Z</time>
            </trkpt>
            <trkpt lon="99.711871" lat="12.873058">
                <ele>70.794189</ele>
                <time>2006-02-25T07:35:43Z</time>
            </trkpt>
            <trkpt lon="99.711850" lat="12.873402">
                <ele>71.274902</ele>
                <time>2006-02-25T07:35:51Z</time>
            </trkpt>
            <trkpt lon="99.711828" lat="12.874196">
                <ele>72.716919</ele>
                <time>2006-02-25T07:36:10Z</time>
            </trkpt>
            <trkpt lon="99.712043" lat="12.874947">
                <ele>72.716919</ele>
                <time>2006-02-25T07:36:31Z</time>
            </trkpt>
            <trkpt lon="99.712214" lat="12.875440">
                <ele>74.639526</ele>
                <time>2006-02-25T07:36:49Z</time>
            </trkpt>
            <trkpt lon="99.712408" lat="12.876041">
                <ele>76.081421</ele>
                <time>2006-02-25T07:37:09Z</time>
            </trkpt>
            <trkpt lon="99.712622" lat="12.876492">
                <ele>78.484741</ele>
                <time>2006-02-25T07:37:26Z</time>
            </trkpt>
            <trkpt lon="99.712923" lat="12.876685">
                <ele>81.368774</ele>
                <time>2006-02-25T07:37:41Z</time>
            </trkpt>
            <trkpt lon="99.713480" lat="12.876728">
                <ele>84.733398</ele>
                <time>2006-02-25T07:38:01Z</time>
            </trkpt>
            <trkpt lon="99.714146" lat="12.876770">
                <ele>87.136597</ele>
                <time>2006-02-25T07:38:22Z</time>
            </trkpt>
            <trkpt lon="99.714510" lat="12.876749">
                <ele>88.578735</ele>
                <time>2006-02-25T07:38:38Z</time>
            </trkpt>
            <trkpt lon="99.714746" lat="12.876770">
                <ele>88.578735</ele>
                <time>2006-02-25T07:38:49Z</time>
            </trkpt>
            <trkpt lon="99.715562" lat="12.876792">
                <ele>89.539917</ele>
                <time>2006-02-25T07:39:11Z</time>
            </trkpt>
            <trkpt lon="99.716163" lat="12.877049">
                <ele>89.539917</ele>
                <time>2006-02-25T07:39:28Z</time>
            </trkpt>
            <trkpt lon="99.716892" lat="12.877500">
                <ele>90.020630</ele>
                <time>2006-02-25T07:39:51Z</time>
            </trkpt>
            <trkpt lon="99.717000" lat="12.877693">
                <ele>89.059326</ele>
                <time>2006-02-25T07:39:59Z</time>
            </trkpt>
            <trkpt lon="99.716914" lat="12.877693">
                <ele>87.136597</ele>
                <time>2006-02-25T07:40:10Z</time>
            </trkpt>
            <trkpt lon="99.716914" lat="12.877715">
                <ele>86.656006</ele>
                <time>2006-02-25T07:40:12Z</time>
            </trkpt>
            <trkpt lon="99.716957" lat="12.877693">
                <ele>87.617188</ele>
                <time>2006-02-25T07:40:17Z</time>
            </trkpt>
            <trkpt lon="99.717193" lat="12.877779">
                <ele>88.578735</ele>
                <time>2006-02-25T07:40:28Z</time>
            </trkpt>
            <trkpt lon="99.717193" lat="12.877758">
                <ele>88.098022</ele>
                <time>2006-02-25T07:40:50Z</time>
            </trkpt>
            <trkpt lon="99.717171" lat="12.877672">
                <ele>89.539917</ele>
                <time>2006-02-25T07:41:07Z</time>
            </trkpt>
            <trkpt lon="99.717171" lat="12.877715">
                <ele>89.539917</ele>
                <time>2006-02-25T07:50:48Z</time>
            </trkpt>
            <trkpt lon="99.717171" lat="12.877650">
                <ele>89.059326</ele>
                <time>2006-02-25T08:02:00Z</time>
            </trkpt>
            <trkpt lon="99.717021" lat="12.877543">
                <ele>88.578735</ele>
                <time>2006-02-25T08:02:09Z</time>
            </trkpt>
            <trkpt lon="99.716914" lat="12.877457">
                <ele>89.059326</ele>
                <time>2006-02-25T08:02:12Z</time>
            </trkpt>
            <trkpt lon="99.716377" lat="12.877135">
                <ele>88.098022</ele>
                <time>2006-02-25T08:02:27Z</time>
            </trkpt>
            <trkpt lon="99.716442" lat="12.877221">
                <ele>87.617188</ele>
                <time>2006-02-25T08:02:36Z</time>
            </trkpt>
            <trkpt lon="99.716871" lat="12.877457">
                <ele>85.694580</ele>
                <time>2006-02-25T08:02:53Z</time>
            </trkpt>
            <trkpt lon="99.717107" lat="12.877715">
                <ele>84.733398</ele>
                <time>2006-02-25T08:03:05Z</time>
            </trkpt>
            <trkpt lon="99.717150" lat="12.877715">
                <ele>84.733398</ele>
                <time>2006-02-25T08:03:07Z</time>
            </trkpt>
            <trkpt lon="99.717171" lat="12.877672">
                <ele>86.175293</ele>
                <time>2006-02-25T08:03:19Z</time>
            </trkpt>
            <trkpt lon="99.717171" lat="12.877672">
                <ele>85.694580</ele>
                <time>2006-02-25T08:04:04Z</time>
            </trkpt>
            <trkpt lon="99.717171" lat="12.877736">
                <ele>90.020630</ele>
                <time>2006-02-25T08:05:31Z</time>
            </trkpt>
            <trkpt lon="99.717193" lat="12.877715">
                <ele>90.981934</ele>
                <time>2006-02-25T08:06:51Z</time>
            </trkpt>
            <trkpt lon="99.717150" lat="12.877693">
                <ele>90.020630</ele>
                <time>2006-02-25T08:13:53Z</time>
            </trkpt>
            <trkpt lon="99.717171" lat="12.877736">
                <ele>90.020630</ele>
                <time>2006-02-25T08:14:44Z</time>
            </trkpt>
            <trkpt lon="99.717278" lat="12.877800">
                <ele>89.059326</ele>
                <time>2006-02-25T08:14:50Z</time>
            </trkpt>
            <trkpt lon="99.717643" lat="12.878036">
                <ele>90.501343</ele>
                <time>2006-02-25T08:15:05Z</time>
            </trkpt>
            <trkpt lon="99.718008" lat="12.878551">
                <ele>89.539917</ele>
                <time>2006-02-25T08:15:23Z</time>
            </trkpt>
            <trkpt lon="99.718180" lat="12.878959">
                <ele>89.539917</ele>
                <time>2006-02-25T08:15:38Z</time>
            </trkpt>
            <trkpt lon="99.718308" lat="12.879753">
                <ele>90.501343</ele>
                <time>2006-02-25T08:15:58Z</time>
            </trkpt>
            <trkpt lon="99.718480" lat="12.880847">
                <ele>92.904541</ele>
                <time>2006-02-25T08:16:22Z</time>
            </trkpt>
            <trkpt lon="99.718544" lat="12.881320">
                <ele>98.191895</ele>
                <time>2006-02-25T08:16:37Z</time>
            </trkpt>
            <trkpt lon="99.718587" lat="12.881641">
                <ele>100.595093</ele>
                <time>2006-02-25T08:16:53Z</time>
            </trkpt>
            <trkpt lon="99.718630" lat="12.881835">
                <ele>99.153076</ele>
                <time>2006-02-25T08:16:59Z</time>
            </trkpt>
            <trkpt lon="99.718652" lat="12.881985">
                <ele>96.749878</ele>
                <time>2006-02-25T08:17:07Z</time>
            </trkpt>
            <trkpt lon="99.718781" lat="12.882521">
                <ele>89.539917</ele>
                <time>2006-02-25T08:17:15Z</time>
            </trkpt>
            <trkpt lon="99.719296" lat="12.883294">
                <ele>84.252686</ele>
                <time>2006-02-25T08:17:25Z</time>
            </trkpt>
            <trkpt lon="99.719832" lat="12.883658">
                <ele>85.694580</ele>
                <time>2006-02-25T08:17:36Z</time>
            </trkpt>
            <trkpt lon="99.720175" lat="12.883787">
                <ele>86.656006</ele>
                <time>2006-02-25T08:17:44Z</time>
            </trkpt>
            <trkpt lon="99.720197" lat="12.883852">
                <ele>86.656006</ele>
                <time>2006-02-25T08:17:46Z</time>
            </trkpt>
            <trkpt lon="99.720368" lat="12.884045">
                <ele>86.175293</ele>
                <time>2006-02-25T08:17:52Z</time>
            </trkpt>
            <trkpt lon="99.720411" lat="12.884109">
                <ele>86.656006</ele>
                <time>2006-02-25T08:17:54Z</time>
            </trkpt>
            <trkpt lon="99.720368" lat="12.884409">
                <ele>86.175293</ele>
                <time>2006-02-25T08:18:01Z</time>
            </trkpt>
            <trkpt lon="99.720197" lat="12.884624">
                <ele>87.136597</ele>
                <time>2006-02-25T08:18:10Z</time>
            </trkpt>
            <trkpt lon="99.720197" lat="12.884710">
                <ele>87.617188</ele>
                <time>2006-02-25T08:18:18Z</time>
            </trkpt>
            <trkpt lon="99.720089" lat="12.884753">
                <ele>87.617188</ele>
                <time>2006-02-25T08:18:25Z</time>
            </trkpt>
            <trkpt lon="99.720025" lat="12.884796">
                <ele>87.617188</ele>
                <time>2006-02-25T08:18:28Z</time>
            </trkpt>
            <trkpt lon="99.720068" lat="12.884989">
                <ele>86.656006</ele>
                <time>2006-02-25T08:18:36Z</time>
            </trkpt>
            <trkpt lon="99.720390" lat="12.885439">
                <ele>85.694580</ele>
                <time>2006-02-25T08:18:51Z</time>
            </trkpt>
            <trkpt lon="99.720519" lat="12.885697">
                <ele>85.213989</ele>
                <time>2006-02-25T08:19:01Z</time>
            </trkpt>
            <trkpt lon="99.720154" lat="12.885847">
                <ele>84.733398</ele>
                <time>2006-02-25T08:19:14Z</time>
            </trkpt>
            <trkpt lon="99.719832" lat="12.886040">
                <ele>83.291382</ele>
                <time>2006-02-25T08:19:23Z</time>
            </trkpt>
            <trkpt lon="99.719682" lat="12.886105">
                <ele>83.291382</ele>
                <time>2006-02-25T08:19:27Z</time>
            </trkpt>
            <trkpt lon="99.719253" lat="12.886341">
                <ele>82.810791</ele>
                <time>2006-02-25T08:19:40Z</time>
            </trkpt>
            <trkpt lon="99.719017" lat="12.886491">
                <ele>81.849365</ele>
                <time>2006-02-25T08:19:48Z</time>
            </trkpt>
            <trkpt lon="99.719059" lat="12.886577">
                <ele>81.368774</ele>
                <time>2006-02-25T08:19:52Z</time>
            </trkpt>
            <trkpt lon="99.719446" lat="12.887070">
                <ele>80.888184</ele>
                <time>2006-02-25T08:20:09Z</time>
            </trkpt>
            <trkpt lon="99.719810" lat="12.887650">
                <ele>80.407471</ele>
                <time>2006-02-25T08:20:24Z</time>
            </trkpt>
            <trkpt lon="99.720111" lat="12.887971">
                <ele>78.484741</ele>
                <time>2006-02-25T08:20:34Z</time>
            </trkpt>
            <trkpt lon="99.720411" lat="12.888765">
                <ele>78.484741</ele>
                <time>2006-02-25T08:20:52Z</time>
            </trkpt>
            <trkpt lon="99.720497" lat="12.888980">
                <ele>77.523438</ele>
                <time>2006-02-25T08:20:57Z</time>
            </trkpt>
            <trkpt lon="99.720562" lat="12.889130">
                <ele>78.004028</ele>
                <time>2006-02-25T08:21:02Z</time>
            </trkpt>
            <trkpt lon="99.720197" lat="12.889280">
                <ele>78.484741</ele>
                <time>2006-02-25T08:21:15Z</time>
            </trkpt>
            <trkpt lon="99.719896" lat="12.889431">
                <ele>78.004028</ele>
                <time>2006-02-25T08:21:27Z</time>
            </trkpt>
            <trkpt lon="99.719939" lat="12.889431">
                <ele>79.926636</ele>
                <time>2006-02-25T08:21:41Z</time>
            </trkpt>
            <trkpt lon="99.720283" lat="12.889259">
                <ele>80.407471</ele>
                <time>2006-02-25T08:21:55Z</time>
            </trkpt>
            <trkpt lon="99.720519" lat="12.889152">
                <ele>81.368774</ele>
                <time>2006-02-25T08:22:03Z</time>
            </trkpt>
            <trkpt lon="99.720368" lat="12.888787">
                <ele>82.810791</ele>
                <time>2006-02-25T08:22:14Z</time>
            </trkpt>
            <trkpt lon="99.720240" lat="12.888443">
                <ele>80.888184</ele>
                <time>2006-02-25T08:22:23Z</time>
            </trkpt>
            <trkpt lon="99.720111" lat="12.888100">
                <ele>82.330078</ele>
                <time>2006-02-25T08:22:31Z</time>
            </trkpt>
            <trkpt lon="99.720068" lat="12.887993">
                <ele>82.810791</ele>
                <time>2006-02-25T08:22:34Z</time>
            </trkpt>
            <trkpt lon="99.719875" lat="12.887735">
                <ele>83.291382</ele>
                <time>2006-02-25T08:22:41Z</time>
            </trkpt>
            <trkpt lon="99.719810" lat="12.887671">
                <ele>83.291382</ele>
                <time>2006-02-25T08:22:43Z</time>
            </trkpt>
            <trkpt lon="99.719424" lat="12.887006">
                <ele>83.291382</ele>
                <time>2006-02-25T08:22:59Z</time>
            </trkpt>
            <trkpt lon="99.718974" lat="12.886426">
                <ele>83.291382</ele>
                <time>2006-02-25T08:23:15Z</time>
            </trkpt>
            <trkpt lon="99.719059" lat="12.886405">
                <ele>83.771973</ele>
                <time>2006-02-25T08:23:20Z</time>
            </trkpt>
            <trkpt lon="99.719403" lat="12.886233">
                <ele>84.733398</ele>
                <time>2006-02-25T08:23:33Z</time>
            </trkpt>
            <trkpt lon="99.719789" lat="12.886083">
                <ele>86.175293</ele>
                <time>2006-02-25T08:23:45Z</time>
            </trkpt>
            <trkpt lon="99.720175" lat="12.885869">
                <ele>87.617188</ele>
                <time>2006-02-25T08:23:59Z</time>
            </trkpt>
            <trkpt lon="99.720433" lat="12.885761">
                <ele>88.098022</ele>
                <time>2006-02-25T08:24:12Z</time>
            </trkpt>
            <trkpt lon="99.720476" lat="12.885761">
                <ele>88.578735</ele>
                <time>2006-02-25T08:24:16Z</time>
            </trkpt>
            <trkpt lon="99.720476" lat="12.885740">
                <ele>88.098022</ele>
                <time>2006-02-25T08:24:32Z</time>
            </trkpt>
            <trkpt lon="99.720454" lat="12.885740">
                <ele>88.098022</ele>
                <time>2006-02-25T08:24:36Z</time>
            </trkpt>
            <trkpt lon="99.720411" lat="12.885761">
                <ele>88.578735</ele>
                <time>2006-02-25T08:24:40Z</time>
            </trkpt>
            <trkpt lon="99.720047" lat="12.885890">
                <ele>87.617188</ele>
                <time>2006-02-25T08:24:51Z</time>
            </trkpt>
            <trkpt lon="99.719939" lat="12.885976">
                <ele>87.136597</ele>
                <time>2006-02-25T08:24:54Z</time>
            </trkpt>
            <trkpt lon="99.719703" lat="12.886105">
                <ele>86.175293</ele>
                <time>2006-02-25T08:25:00Z</time>
            </trkpt>
            <trkpt lon="99.719510" lat="12.886169">
                <ele>85.213989</ele>
                <time>2006-02-25T08:25:04Z</time>
            </trkpt>
            <trkpt lon="99.719424" lat="12.886212">
                <ele>85.213989</ele>
                <time>2006-02-25T08:25:06Z</time>
            </trkpt>
            <trkpt lon="99.719338" lat="12.886298">
                <ele>84.252686</ele>
                <time>2006-02-25T08:25:09Z</time>
            </trkpt>
            <trkpt lon="99.719188" lat="12.886384">
                <ele>83.771973</ele>
                <time>2006-02-25T08:25:13Z</time>
            </trkpt>
            <trkpt lon="99.719038" lat="12.886491">
                <ele>83.291382</ele>
                <time>2006-02-25T08:25:18Z</time>
            </trkpt>
            <trkpt lon="99.719081" lat="12.886598">
                <ele>82.810791</ele>
                <time>2006-02-25T08:25:22Z</time>
            </trkpt>
            <trkpt lon="99.719489" lat="12.887156">
                <ele>81.849365</ele>
                <time>2006-02-25T08:25:40Z</time>
            </trkpt>
            <trkpt lon="99.719768" lat="12.887585">
                <ele>80.888184</ele>
                <time>2006-02-25T08:25:52Z</time>
            </trkpt>
            <trkpt lon="99.720089" lat="12.887993">
                <ele>80.407471</ele>
                <time>2006-02-25T08:26:04Z</time>
            </trkpt>
            <trkpt lon="99.720154" lat="12.888100">
                <ele>80.407471</ele>
                <time>2006-02-25T08:26:07Z</time>
            </trkpt>
            <trkpt lon="99.720519" lat="12.889044">
                <ele>79.926636</ele>
                <time>2006-02-25T08:26:28Z</time>
            </trkpt>
            <trkpt lon="99.720411" lat="12.889216">
                <ele>79.926636</ele>
                <time>2006-02-25T08:26:34Z</time>
            </trkpt>
            <trkpt lon="99.720175" lat="12.889323">
                <ele>79.926636</ele>
                <time>2006-02-25T08:26:39Z</time>
            </trkpt>
            <trkpt lon="99.719553" lat="12.889538">
                <ele>78.484741</ele>
                <time>2006-02-25T08:26:50Z</time>
            </trkpt>
            <trkpt lon="99.718759" lat="12.890267">
                <ele>77.042847</ele>
                <time>2006-02-25T08:27:06Z</time>
            </trkpt>
            <trkpt lon="99.717815" lat="12.891169">
                <ele>73.678223</ele>
                <time>2006-02-25T08:27:24Z</time>
            </trkpt>
            <trkpt lon="99.717407" lat="12.891469">
                <ele>73.678223</ele>
                <time>2006-02-25T08:27:33Z</time>
            </trkpt>
            <trkpt lon="99.717493" lat="12.891426">
                <ele>74.158813</ele>
                <time>2006-02-25T08:27:41Z</time>
            </trkpt>
            <trkpt lon="99.717665" lat="12.891297">
                <ele>74.158813</ele>
                <time>2006-02-25T08:27:49Z</time>
            </trkpt>
            <trkpt lon="99.717772" lat="12.891340">
                <ele>74.158813</ele>
                <time>2006-02-25T08:27:53Z</time>
            </trkpt>
            <trkpt lon="99.718201" lat="12.891769">
                <ele>72.716919</ele>
                <time>2006-02-25T08:28:09Z</time>
            </trkpt>
            <trkpt lon="99.718223" lat="12.891812">
                <ele>72.716919</ele>
                <time>2006-02-25T08:28:10Z</time>
            </trkpt>
            <trkpt lon="99.718480" lat="12.892070">
                <ele>72.236206</ele>
                <time>2006-02-25T08:28:21Z</time>
            </trkpt>
            <trkpt lon="99.718866" lat="12.892177">
                <ele>72.716919</ele>
                <time>2006-02-25T08:28:32Z</time>
            </trkpt>
            <trkpt lon="99.718974" lat="12.892220">
                <ele>73.197632</ele>
                <time>2006-02-25T08:28:35Z</time>
            </trkpt>
            <trkpt lon="99.719274" lat="12.892456">
                <ele>72.236206</ele>
                <time>2006-02-25T08:28:44Z</time>
            </trkpt>
            <trkpt lon="99.719660" lat="12.892692">
                <ele>71.755493</ele>
                <time>2006-02-25T08:28:53Z</time>
            </trkpt>
            <trkpt lon="99.719768" lat="12.892778">
                <ele>71.755493</ele>
                <time>2006-02-25T08:28:56Z</time>
            </trkpt>
            <trkpt lon="99.720540" lat="12.893186">
                <ele>73.197632</ele>
                <time>2006-02-25T08:29:14Z</time>
            </trkpt>
            <trkpt lon="99.720647" lat="12.893229">
                <ele>73.197632</ele>
                <time>2006-02-25T08:29:17Z</time>
            </trkpt>
            <trkpt lon="99.720819" lat="12.893293">
                <ele>73.197632</ele>
                <time>2006-02-25T08:29:21Z</time>
            </trkpt>
            <trkpt lon="99.720948" lat="12.893379">
                <ele>74.158813</ele>
                <time>2006-02-25T08:29:24Z</time>
            </trkpt>
            <trkpt lon="99.721205" lat="12.893550">
                <ele>73.678223</ele>
                <time>2006-02-25T08:29:30Z</time>
            </trkpt>
            <trkpt lon="99.721420" lat="12.893701">
                <ele>73.678223</ele>
                <time>2006-02-25T08:29:35Z</time>
            </trkpt>
            <trkpt lon="99.721806" lat="12.893958">
                <ele>72.236206</ele>
                <time>2006-02-25T08:29:44Z</time>
            </trkpt>
            <trkpt lon="99.722342" lat="12.894323">
                <ele>70.313477</ele>
                <time>2006-02-25T08:29:57Z</time>
            </trkpt>
            <trkpt lon="99.722643" lat="12.894602">
                <ele>68.871582</ele>
                <time>2006-02-25T08:30:08Z</time>
            </trkpt>
            <trkpt lon="99.722707" lat="12.894666">
                <ele>68.871582</ele>
                <time>2006-02-25T08:30:17Z</time>
            </trkpt>
            <trkpt lon="99.722707" lat="12.894709">
                <ele>69.832886</ele>
                <time>2006-02-25T08:30:20Z</time>
            </trkpt>
            <trkpt lon="99.722772" lat="12.894752">
                <ele>70.313477</ele>
                <time>2006-02-25T08:30:32Z</time>
            </trkpt>
            <trkpt lon="99.722793" lat="12.894773">
                <ele>69.832886</ele>
                <time>2006-02-25T08:30:34Z</time>
            </trkpt>
            <trkpt lon="99.722965" lat="12.894988">
                <ele>68.390869</ele>
                <time>2006-02-25T08:30:45Z</time>
            </trkpt>
            <trkpt lon="99.722943" lat="12.895267">
                <ele>68.390869</ele>
                <time>2006-02-25T08:30:56Z</time>
            </trkpt>
            <trkpt lon="99.723136" lat="12.895396">
                <ele>68.390869</ele>
                <time>2006-02-25T08:31:04Z</time>
            </trkpt>
            <trkpt lon="99.723158" lat="12.895482">
                <ele>68.390869</ele>
                <time>2006-02-25T08:31:08Z</time>
            </trkpt>
            <trkpt lon="99.723051" lat="12.895868">
                <ele>67.910278</ele>
                <time>2006-02-25T08:31:20Z</time>
            </trkpt>
            <trkpt lon="99.723115" lat="12.896190">
                <ele>66.948975</ele>
                <time>2006-02-25T08:31:30Z</time>
            </trkpt>
            <trkpt lon="99.723201" lat="12.896512">
                <ele>65.026367</ele>
                <time>2006-02-25T08:31:39Z</time>
            </trkpt>
            <trkpt lon="99.723330" lat="12.896597">
                <ele>65.026367</ele>
                <time>2006-02-25T08:31:43Z</time>
            </trkpt>
            <trkpt lon="99.723802" lat="12.897091">
                <ele>65.507080</ele>
                <time>2006-02-25T08:31:59Z</time>
            </trkpt>
            <trkpt lon="99.723952" lat="12.897263">
                <ele>65.507080</ele>
                <time>2006-02-25T08:32:04Z</time>
            </trkpt>
            <trkpt lon="99.724145" lat="12.897477">
                <ele>65.026367</ele>
                <time>2006-02-25T08:32:10Z</time>
            </trkpt>
            <trkpt lon="99.724274" lat="12.897542">
                <ele>65.026367</ele>
                <time>2006-02-25T08:32:13Z</time>
            </trkpt>
            <trkpt lon="99.724360" lat="12.897584">
                <ele>65.026367</ele>
                <time>2006-02-25T08:32:15Z</time>
            </trkpt>
            <trkpt lon="99.724681" lat="12.898035">
                <ele>63.584351</ele>
                <time>2006-02-25T08:32:28Z</time>
            </trkpt>
            <trkpt lon="99.724724" lat="12.898207">
                <ele>63.584351</ele>
                <time>2006-02-25T08:32:35Z</time>
            </trkpt>
            <trkpt lon="99.724767" lat="12.898271">
                <ele>64.065063</ele>
                <time>2006-02-25T08:32:45Z</time>
            </trkpt>
            <trkpt lon="99.724789" lat="12.898271">
                <ele>64.065063</ele>
                <time>2006-02-25T08:32:46Z</time>
            </trkpt>
            <trkpt lon="99.724810" lat="12.898293">
                <ele>64.545654</ele>
                <time>2006-02-25T08:32:56Z</time>
            </trkpt>
            <trkpt lon="99.724896" lat="12.898443">
                <ele>65.026367</ele>
                <time>2006-02-25T08:33:08Z</time>
            </trkpt>
            <trkpt lon="99.725175" lat="12.898657">
                <ele>65.987671</ele>
                <time>2006-02-25T08:33:22Z</time>
            </trkpt>
            <trkpt lon="99.725540" lat="12.898915">
                <ele>65.987671</ele>
                <time>2006-02-25T08:33:35Z</time>
            </trkpt>
            <trkpt lon="99.725840" lat="12.899258">
                <ele>66.468262</ele>
                <time>2006-02-25T08:33:47Z</time>
            </trkpt>
            <trkpt lon="99.726033" lat="12.899387">
                <ele>66.468262</ele>
                <time>2006-02-25T08:33:53Z</time>
            </trkpt>
            <trkpt lon="99.726398" lat="12.899408">
                <ele>67.910278</ele>
                <time>2006-02-25T08:34:04Z</time>
            </trkpt>
            <trkpt lon="99.726849" lat="12.899430">
                <ele>68.871582</ele>
                <time>2006-02-25T08:34:18Z</time>
            </trkpt>
            <trkpt lon="99.727256" lat="12.899365">
                <ele>69.832886</ele>
                <time>2006-02-25T08:34:31Z</time>
            </trkpt>
            <trkpt lon="99.727771" lat="12.899194">
                <ele>71.755493</ele>
                <time>2006-02-25T08:34:49Z</time>
            </trkpt>
            <trkpt lon="99.727986" lat="12.899151">
                <ele>72.236206</ele>
                <time>2006-02-25T08:35:01Z</time>
            </trkpt>
            <trkpt lon="99.727964" lat="12.899194">
                <ele>72.236206</ele>
                <time>2006-02-25T08:35:15Z</time>
            </trkpt>
            <trkpt lon="99.727964" lat="12.899172">
                <ele>72.716919</ele>
                <time>2006-02-25T08:35:18Z</time>
            </trkpt>
            <trkpt lon="99.727943" lat="12.899151">
                <ele>72.716919</ele>
                <time>2006-02-25T08:35:20Z</time>
            </trkpt>
            <trkpt lon="99.727771" lat="12.899172">
                <ele>72.236206</ele>
                <time>2006-02-25T08:35:28Z</time>
            </trkpt>
            <trkpt lon="99.727321" lat="12.899494">
                <ele>70.794189</ele>
                <time>2006-02-25T08:35:43Z</time>
            </trkpt>
            <trkpt lon="99.727106" lat="12.899687">
                <ele>70.313477</ele>
                <time>2006-02-25T08:35:54Z</time>
            </trkpt>
            <trkpt lon="99.727149" lat="12.899730">
                <ele>70.313477</ele>
                <time>2006-02-25T08:35:59Z</time>
            </trkpt>
            <trkpt lon="99.727170" lat="12.899752">
                <ele>70.313477</ele>
                <time>2006-02-25T08:36:03Z</time>
            </trkpt>
            <trkpt lon="99.727213" lat="12.899795">
                <ele>70.794189</ele>
                <time>2006-02-25T08:36:08Z</time>
            </trkpt>
            <trkpt lon="99.727278" lat="12.899837">
                <ele>71.274902</ele>
                <time>2006-02-25T08:36:12Z</time>
            </trkpt>
            <trkpt lon="99.727299" lat="12.899837">
                <ele>71.274902</ele>
                <time>2006-02-25T08:36:15Z</time>
            </trkpt>
            <trkpt lon="99.727514" lat="12.900074">
                <ele>71.274902</ele>
                <time>2006-02-25T08:36:28Z</time>
            </trkpt>
            <trkpt lon="99.727836" lat="12.900438">
                <ele>70.313477</ele>
                <time>2006-02-25T08:36:42Z</time>
            </trkpt>
            <trkpt lon="99.728050" lat="12.900803">
                <ele>69.832886</ele>
                <time>2006-02-25T08:36:55Z</time>
            </trkpt>
            <trkpt lon="99.728072" lat="12.900803">
                <ele>69.352295</ele>
                <time>2006-02-25T08:37:04Z</time>
            </trkpt>
            <trkpt lon="99.728093" lat="12.900803">
                <ele>69.832886</ele>
                <time>2006-02-25T08:37:06Z</time>
            </trkpt>
            <trkpt lon="99.728329" lat="12.900717">
                <ele>70.794189</ele>
                <time>2006-02-25T08:37:18Z</time>
            </trkpt>
            <trkpt lon="99.728394" lat="12.900546">
                <ele>71.274902</ele>
                <time>2006-02-25T08:37:25Z</time>
            </trkpt>
            <trkpt lon="99.728544" lat="12.900288">
                <ele>72.716919</ele>
                <time>2006-02-25T08:37:37Z</time>
            </trkpt>
            <trkpt lon="99.728651" lat="12.900224">
                <ele>73.678223</ele>
                <time>2006-02-25T08:37:42Z</time>
            </trkpt>
            <trkpt lon="99.728758" lat="12.900116">
                <ele>74.639526</ele>
                <time>2006-02-25T08:37:48Z</time>
            </trkpt>
            <trkpt lon="99.729037" lat="12.900009">
                <ele>77.042847</ele>
                <time>2006-02-25T08:38:01Z</time>
            </trkpt>
            <trkpt lon="99.729080" lat="12.900031">
                <ele>77.042847</ele>
                <time>2006-02-25T08:38:03Z</time>
            </trkpt>
            <trkpt lon="99.729273" lat="12.900331">
                <ele>77.042847</ele>
                <time>2006-02-25T08:38:19Z</time>
            </trkpt>
            <trkpt lon="99.729424" lat="12.900696">
                <ele>77.042847</ele>
                <time>2006-02-25T08:38:31Z</time>
            </trkpt>
            <trkpt lon="99.729681" lat="12.901425">
                <ele>74.639526</ele>
                <time>2006-02-25T08:38:49Z</time>
            </trkpt>
            <trkpt lon="99.729724" lat="12.901576">
                <ele>73.678223</ele>
                <time>2006-02-25T08:38:52Z</time>
            </trkpt>
            <trkpt lon="99.729917" lat="12.901940">
                <ele>75.600830</ele>
                <time>2006-02-25T08:39:04Z</time>
            </trkpt>
            <trkpt lon="99.730153" lat="12.902391">
                <ele>74.158813</ele>
                <time>2006-02-25T08:39:17Z</time>
            </trkpt>
            <trkpt lon="99.730303" lat="12.902670">
                <ele>73.197632</ele>
                <time>2006-02-25T08:39:24Z</time>
            </trkpt>
            <trkpt lon="99.730346" lat="12.902756">
                <ele>73.197632</ele>
                <time>2006-02-25T08:39:26Z</time>
            </trkpt>
            <trkpt lon="99.730539" lat="12.903142">
                <ele>69.352295</ele>
                <time>2006-02-25T08:39:37Z</time>
            </trkpt>
            <trkpt lon="99.730711" lat="12.903271">
                <ele>68.871582</ele>
                <time>2006-02-25T08:39:42Z</time>
            </trkpt>
            <trkpt lon="99.731333" lat="12.903721">
                <ele>68.390869</ele>
                <time>2006-02-25T08:39:58Z</time>
            </trkpt>
            <trkpt lon="99.731569" lat="12.903914">
                <ele>68.390869</ele>
                <time>2006-02-25T08:40:09Z</time>
            </trkpt>
            <trkpt lon="99.731784" lat="12.904022">
                <ele>70.313477</ele>
                <time>2006-02-25T08:40:22Z</time>
            </trkpt>
            <trkpt lon="99.731891" lat="12.904108">
                <ele>72.236206</ele>
                <time>2006-02-25T08:40:36Z</time>
            </trkpt>
            <trkpt lon="99.731956" lat="12.904150">
                <ele>73.197632</ele>
                <time>2006-02-25T08:40:40Z</time>
            </trkpt>
            <trkpt lon="99.732213" lat="12.904322">
                <ele>71.274902</ele>
                <time>2006-02-25T08:40:53Z</time>
            </trkpt>
            <trkpt lon="99.732471" lat="12.904537">
                <ele>68.871582</ele>
                <time>2006-02-25T08:41:06Z</time>
            </trkpt>
            <trkpt lon="99.732685" lat="12.904687">
                <ele>67.429688</ele>
                <time>2006-02-25T08:41:20Z</time>
            </trkpt>
            <trkpt lon="99.732707" lat="12.904687">
                <ele>67.429688</ele>
                <time>2006-02-25T08:41:21Z</time>
            </trkpt>
            <trkpt lon="99.732857" lat="12.904773">
                <ele>65.987671</ele>
                <time>2006-02-25T08:41:29Z</time>
            </trkpt>
            <trkpt lon="99.732857" lat="12.904837">
                <ele>65.507080</ele>
                <time>2006-02-25T08:41:33Z</time>
            </trkpt>
            <trkpt lon="99.732749" lat="12.905245">
                <ele>63.584351</ele>
                <time>2006-02-25T08:41:46Z</time>
            </trkpt>
            <trkpt lon="99.732728" lat="12.905352">
                <ele>62.142334</ele>
                <time>2006-02-25T08:41:51Z</time>
            </trkpt>
            <trkpt lon="99.732513" lat="12.905309">
                <ele>61.661743</ele>
                <time>2006-02-25T08:42:03Z</time>
            </trkpt>
            <trkpt lon="99.731934" lat="12.905138">
                <ele>62.622925</ele>
                <time>2006-02-25T08:42:19Z</time>
            </trkpt>
            <trkpt lon="99.731483" lat="12.905030">
                <ele>61.661743</ele>
                <time>2006-02-25T08:42:34Z</time>
            </trkpt>
            <trkpt lon="99.731419" lat="12.905030">
                <ele>61.661743</ele>
                <time>2006-02-25T08:42:40Z</time>
            </trkpt>
            <trkpt lon="99.731784" lat="12.905138">
                <ele>62.142334</ele>
                <time>2006-02-25T08:42:53Z</time>
            </trkpt>
            <trkpt lon="99.732492" lat="12.905331">
                <ele>61.181030</ele>
                <time>2006-02-25T08:43:11Z</time>
            </trkpt>
            <trkpt lon="99.732985" lat="12.905459">
                <ele>61.181030</ele>
                <time>2006-02-25T08:43:26Z</time>
            </trkpt>
            <trkpt lon="99.733458" lat="12.905588">
                <ele>62.622925</ele>
                <time>2006-02-25T08:43:43Z</time>
            </trkpt>
            <trkpt lon="99.733500" lat="12.905588">
                <ele>63.584351</ele>
                <time>2006-02-25T08:43:55Z</time>
            </trkpt>
            <trkpt lon="99.733500" lat="12.905567">
                <ele>63.103638</ele>
                <time>2006-02-25T08:43:56Z</time>
            </trkpt>
            <trkpt lon="99.733179" lat="12.905481">
                <ele>62.142334</ele>
                <time>2006-02-25T08:44:06Z</time>
            </trkpt>
            <trkpt lon="99.733136" lat="12.905481">
                <ele>62.142334</ele>
                <time>2006-02-25T08:44:07Z</time>
            </trkpt>
            <trkpt lon="99.733028" lat="12.905459">
                <ele>61.661743</ele>
                <time>2006-02-25T08:44:16Z</time>
            </trkpt>
            <trkpt lon="99.733050" lat="12.905481">
                <ele>60.219727</ele>
                <time>2006-02-25T08:44:29Z</time>
            </trkpt>
            <trkpt lon="99.733458" lat="12.905588">
                <ele>61.661743</ele>
                <time>2006-02-25T08:44:44Z</time>
            </trkpt>
            <trkpt lon="99.733994" lat="12.905846">
                <ele>62.622925</ele>
                <time>2006-02-25T08:45:00Z</time>
            </trkpt>
            <trkpt lon="99.734766" lat="12.906339">
                <ele>58.297119</ele>
                <time>2006-02-25T08:45:17Z</time>
            </trkpt>
            <trkpt lon="99.734917" lat="12.906446">
                <ele>58.297119</ele>
                <time>2006-02-25T08:45:22Z</time>
            </trkpt>
            <trkpt lon="99.734960" lat="12.906511">
                <ele>58.297119</ele>
                <time>2006-02-25T08:45:27Z</time>
            </trkpt>
            <trkpt lon="99.735453" lat="12.906833">
                <ele>58.297119</ele>
                <time>2006-02-25T08:45:41Z</time>
            </trkpt>
            <trkpt lon="99.735904" lat="12.907069">
                <ele>58.777710</ele>
                <time>2006-02-25T08:45:51Z</time>
            </trkpt>
            <trkpt lon="99.735904" lat="12.907240">
                <ele>59.258423</ele>
                <time>2006-02-25T08:45:55Z</time>
            </trkpt>
            <trkpt lon="99.735754" lat="12.908399">
                <ele>58.777710</ele>
                <time>2006-02-25T08:46:14Z</time>
            </trkpt>
            <trkpt lon="99.735496" lat="12.909601">
                <ele>56.855103</ele>
                <time>2006-02-25T08:46:33Z</time>
            </trkpt>
            <trkpt lon="99.735196" lat="12.911060">
                <ele>53.971191</ele>
                <time>2006-02-25T08:46:55Z</time>
            </trkpt>
            <trkpt lon="99.734960" lat="12.912197">
                <ele>49.645264</ele>
                <time>2006-02-25T08:47:12Z</time>
            </trkpt>
            <trkpt lon="99.734745" lat="12.913399">
                <ele>49.164551</ele>
                <time>2006-02-25T08:47:31Z</time>
            </trkpt>
            <trkpt lon="99.734659" lat="12.913871">
                <ele>49.164551</ele>
                <time>2006-02-25T08:47:40Z</time>
            </trkpt>
            <trkpt lon="99.734445" lat="12.913849">
                <ele>49.645264</ele>
                <time>2006-02-25T08:47:47Z</time>
            </trkpt>
            <trkpt lon="99.734380" lat="12.913785">
                <ele>50.125977</ele>
                <time>2006-02-25T08:48:01Z</time>
            </trkpt>
            <trkpt lon="99.734380" lat="12.913785">
                <ele>50.125977</ele>
                <time>2006-02-25T08:48:02Z</time>
            </trkpt>
            <trkpt lon="99.734316" lat="12.913742">
                <ele>50.606567</ele>
                <time>2006-02-25T08:48:07Z</time>
            </trkpt>
            <trkpt lon="99.733930" lat="12.913592">
                <ele>50.606567</ele>
                <time>2006-02-25T08:48:23Z</time>
            </trkpt>
            <trkpt lon="99.733458" lat="12.913699">
                <ele>51.087158</ele>
                <time>2006-02-25T08:48:36Z</time>
            </trkpt>
            <trkpt lon="99.733372" lat="12.913764">
                <ele>51.087158</ele>
                <time>2006-02-25T08:48:39Z</time>
            </trkpt>
            <trkpt lon="99.733350" lat="12.913742">
                <ele>51.087158</ele>
                <time>2006-02-25T08:48:42Z</time>
            </trkpt>
            <trkpt lon="99.733436" lat="12.913656">
                <ele>51.087158</ele>
                <time>2006-02-25T08:48:56Z</time>
            </trkpt>
            <trkpt lon="99.733436" lat="12.913678">
                <ele>51.567871</ele>
                <time>2006-02-25T08:51:56Z</time>
            </trkpt>
            <trkpt lon="99.733415" lat="12.913699">
                <ele>52.048584</ele>
                <time>2006-02-25T08:52:12Z</time>
            </trkpt>
            <trkpt lon="99.733393" lat="12.913699">
                <ele>52.048584</ele>
                <time>2006-02-25T08:53:01Z</time>
            </trkpt>
            <trkpt lon="99.733329" lat="12.913806">
                <ele>52.529175</ele>
                <time>2006-02-25T08:53:09Z</time>
            </trkpt>
            <trkpt lon="99.733028" lat="12.914236">
                <ele>51.087158</ele>
                <time>2006-02-25T08:53:23Z</time>
            </trkpt>
            <trkpt lon="99.732792" lat="12.914729">
                <ele>51.567871</ele>
                <time>2006-02-25T08:53:38Z</time>
            </trkpt>
            <trkpt lon="99.732449" lat="12.915244">
                <ele>51.087158</ele>
                <time>2006-02-25T08:53:55Z</time>
            </trkpt>
            <trkpt lon="99.732170" lat="12.915008">
                <ele>51.087158</ele>
                <time>2006-02-25T08:54:05Z</time>
            </trkpt>
            <trkpt lon="99.731548" lat="12.914600">
                <ele>51.567871</ele>
                <time>2006-02-25T08:54:22Z</time>
            </trkpt>
            <trkpt lon="99.730797" lat="12.914279">
                <ele>53.009766</ele>
                <time>2006-02-25T08:54:40Z</time>
            </trkpt>
            <trkpt lon="99.729831" lat="12.913828">
                <ele>55.893799</ele>
                <time>2006-02-25T08:55:04Z</time>
            </trkpt>
            <trkpt lon="99.729059" lat="12.913377">
                <ele>56.855103</ele>
                <time>2006-02-25T08:55:24Z</time>
            </trkpt>
            <trkpt lon="99.728372" lat="12.913013">
                <ele>58.297119</ele>
                <time>2006-02-25T08:55:42Z</time>
            </trkpt>
            <trkpt lon="99.727707" lat="12.912669">
                <ele>59.258423</ele>
                <time>2006-02-25T08:56:02Z</time>
            </trkpt>
            <trkpt lon="99.726892" lat="12.912197">
                <ele>58.777710</ele>
                <time>2006-02-25T08:56:24Z</time>
            </trkpt>
            <trkpt lon="99.726140" lat="12.911747">
                <ele>58.777710</ele>
                <time>2006-02-25T08:56:42Z</time>
            </trkpt>
            <trkpt lon="99.725776" lat="12.911446">
                <ele>58.297119</ele>
                <time>2006-02-25T08:56:51Z</time>
            </trkpt>
            <trkpt lon="99.725711" lat="12.911403">
                <ele>58.297119</ele>
                <time>2006-02-25T08:56:53Z</time>
            </trkpt>
            <trkpt lon="99.725604" lat="12.911446">
                <ele>58.297119</ele>
                <time>2006-02-25T08:56:57Z</time>
            </trkpt>
            <trkpt lon="99.725325" lat="12.911789">
                <ele>59.258423</ele>
                <time>2006-02-25T08:57:11Z</time>
            </trkpt>
            <trkpt lon="99.725261" lat="12.911832">
                <ele>59.739136</ele>
                <time>2006-02-25T08:57:13Z</time>
            </trkpt>
            <trkpt lon="99.724917" lat="12.912261">
                <ele>59.739136</ele>
                <time>2006-02-25T08:57:28Z</time>
            </trkpt>
            <trkpt lon="99.724874" lat="12.912304">
                <ele>60.219727</ele>
                <time>2006-02-25T08:57:30Z</time>
            </trkpt>
            <trkpt lon="99.724896" lat="12.912390">
                <ele>60.219727</ele>
                <time>2006-02-25T08:57:34Z</time>
            </trkpt>
            <trkpt lon="99.724939" lat="12.912476">
                <ele>60.219727</ele>
                <time>2006-02-25T08:57:38Z</time>
            </trkpt>
            <trkpt lon="99.724853" lat="12.912841">
                <ele>60.219727</ele>
                <time>2006-02-25T08:57:52Z</time>
            </trkpt>
            <trkpt lon="99.724832" lat="12.912862">
                <ele>60.219727</ele>
                <time>2006-02-25T08:57:53Z</time>
            </trkpt>
            <trkpt lon="99.724874" lat="12.913055">
                <ele>61.181030</ele>
                <time>2006-02-25T08:58:00Z</time>
            </trkpt>
            <trkpt lon="99.724832" lat="12.913377">
                <ele>63.584351</ele>
                <time>2006-02-25T08:58:12Z</time>
            </trkpt>
            <trkpt lon="99.724789" lat="12.913721">
                <ele>65.026367</ele>
                <time>2006-02-25T08:58:26Z</time>
            </trkpt>
            <trkpt lon="99.724832" lat="12.913957">
                <ele>65.987671</ele>
                <time>2006-02-25T08:58:36Z</time>
            </trkpt>
            <trkpt lon="99.725111" lat="12.914686">
                <ele>66.468262</ele>
                <time>2006-02-25T08:58:57Z</time>
            </trkpt>
            <trkpt lon="99.725389" lat="12.915416">
                <ele>67.429688</ele>
                <time>2006-02-25T08:59:17Z</time>
            </trkpt>
            <trkpt lon="99.725411" lat="12.915502">
                <ele>66.948975</ele>
                <time>2006-02-25T08:59:19Z</time>
            </trkpt>
            <trkpt lon="99.725497" lat="12.915695">
                <ele>66.468262</ele>
                <time>2006-02-25T08:59:23Z</time>
            </trkpt>
            <trkpt lon="99.725733" lat="12.915866">
                <ele>66.468262</ele>
                <time>2006-02-25T08:59:30Z</time>
            </trkpt>
            <trkpt lon="99.725969" lat="12.915866">
                <ele>67.429688</ele>
                <time>2006-02-25T08:59:35Z</time>
            </trkpt>
            <trkpt lon="99.726055" lat="12.915866">
                <ele>66.948975</ele>
                <time>2006-02-25T08:59:37Z</time>
            </trkpt>
            <trkpt lon="99.726226" lat="12.915931">
                <ele>66.468262</ele>
                <time>2006-02-25T08:59:41Z</time>
            </trkpt>
            <trkpt lon="99.726505" lat="12.916059">
                <ele>65.987671</ele>
                <time>2006-02-25T08:59:47Z</time>
            </trkpt>
            <trkpt lon="99.726806" lat="12.916253">
                <ele>65.507080</ele>
                <time>2006-02-25T08:59:54Z</time>
            </trkpt>
            <trkpt lon="99.726892" lat="12.916296">
                <ele>64.545654</ele>
                <time>2006-02-25T08:59:56Z</time>
            </trkpt>
            <trkpt lon="99.726999" lat="12.916381">
                <ele>64.065063</ele>
                <time>2006-02-25T08:59:59Z</time>
            </trkpt>
            <trkpt lon="99.727063" lat="12.916424">
                <ele>63.584351</ele>
                <time>2006-02-25T09:00:01Z</time>
            </trkpt>
            <trkpt lon="99.727321" lat="12.916510">
                <ele>62.142334</ele>
                <time>2006-02-25T09:00:07Z</time>
            </trkpt>
            <trkpt lon="99.727578" lat="12.916853">
                <ele>60.219727</ele>
                <time>2006-02-25T09:00:15Z</time>
            </trkpt>
            <trkpt lon="99.727900" lat="12.917755">
                <ele>57.335815</ele>
                <time>2006-02-25T09:00:33Z</time>
            </trkpt>
            <trkpt lon="99.728007" lat="12.918205">
                <ele>58.297119</ele>
                <time>2006-02-25T09:00:42Z</time>
            </trkpt>
            <trkpt lon="99.728029" lat="12.918355">
                <ele>57.816528</ele>
                <time>2006-02-25T09:00:45Z</time>
            </trkpt>
            <trkpt lon="99.728351" lat="12.919235">
                <ele>57.335815</ele>
                <time>2006-02-25T09:01:03Z</time>
            </trkpt>
            <trkpt lon="99.728673" lat="12.920115">
                <ele>55.413086</ele>
                <time>2006-02-25T09:01:19Z</time>
            </trkpt>
            <trkpt lon="99.728951" lat="12.920887">
                <ele>55.413086</ele>
                <time>2006-02-25T09:01:35Z</time>
            </trkpt>
            <trkpt lon="99.729209" lat="12.921681">
                <ele>53.490479</ele>
                <time>2006-02-25T09:01:50Z</time>
            </trkpt>
            <trkpt lon="99.729509" lat="12.922411">
                <ele>51.567871</ele>
                <time>2006-02-25T09:02:06Z</time>
            </trkpt>
            <trkpt lon="99.729745" lat="12.923205">
                <ele>53.971191</ele>
                <time>2006-02-25T09:02:23Z</time>
            </trkpt>
            <trkpt lon="99.730046" lat="12.923999">
                <ele>53.490479</ele>
                <time>2006-02-25T09:02:39Z</time>
            </trkpt>
            <trkpt lon="99.730325" lat="12.924900">
                <ele>53.490479</ele>
                <time>2006-02-25T09:02:56Z</time>
            </trkpt>
            <trkpt lon="99.730668" lat="12.925866">
                <ele>51.087158</ele>
                <time>2006-02-25T09:03:15Z</time>
            </trkpt>
            <trkpt lon="99.730840" lat="12.926552">
                <ele>50.125977</ele>
                <time>2006-02-25T09:03:30Z</time>
            </trkpt>
            <trkpt lon="99.730818" lat="12.926531">
                <ele>52.048584</ele>
                <time>2006-02-25T09:03:40Z</time>
            </trkpt>
            <trkpt lon="99.730647" lat="12.926488">
                <ele>53.490479</ele>
                <time>2006-02-25T09:03:55Z</time>
            </trkpt>
            <trkpt lon="99.730067" lat="12.926316">
                <ele>53.009766</ele>
                <time>2006-02-25T09:04:09Z</time>
            </trkpt>
            <trkpt lon="99.730046" lat="12.926316">
                <ele>53.009766</ele>
                <time>2006-02-25T09:04:10Z</time>
            </trkpt>
            <trkpt lon="99.730003" lat="12.926316">
                <ele>53.009766</ele>
                <time>2006-02-25T09:04:14Z</time>
            </trkpt>
            <trkpt lon="99.729788" lat="12.926552">
                <ele>51.087158</ele>
                <time>2006-02-25T09:04:24Z</time>
            </trkpt>
            <trkpt lon="99.729702" lat="12.927089">
                <ele>50.606567</ele>
                <time>2006-02-25T09:04:38Z</time>
            </trkpt>
            <trkpt lon="99.729724" lat="12.928054">
                <ele>49.164551</ele>
                <time>2006-02-25T09:04:58Z</time>
            </trkpt>
            <trkpt lon="99.729788" lat="12.928805">
                <ele>49.164551</ele>
                <time>2006-02-25T09:05:16Z</time>
            </trkpt>
            <trkpt lon="99.729767" lat="12.929149">
                <ele>48.203369</ele>
                <time>2006-02-25T09:05:23Z</time>
            </trkpt>
            <trkpt lon="99.730024" lat="12.930071">
                <ele>47.722534</ele>
                <time>2006-02-25T09:05:41Z</time>
            </trkpt>
            <trkpt lon="99.730110" lat="12.930350">
                <ele>48.203369</ele>
                <time>2006-02-25T09:05:47Z</time>
            </trkpt>
            <trkpt lon="99.730260" lat="12.930973">
                <ele>48.203369</ele>
                <time>2006-02-25T09:06:03Z</time>
            </trkpt>
            <trkpt lon="99.730346" lat="12.931445">
                <ele>47.722534</ele>
                <time>2006-02-25T09:06:14Z</time>
            </trkpt>
            <trkpt lon="99.730389" lat="12.931659">
                <ele>47.722534</ele>
                <time>2006-02-25T09:06:19Z</time>
            </trkpt>
            <trkpt lon="99.730303" lat="12.932174">
                <ele>48.683960</ele>
                <time>2006-02-25T09:06:30Z</time>
            </trkpt>
            <trkpt lon="99.730325" lat="12.932367">
                <ele>48.203369</ele>
                <time>2006-02-25T09:06:34Z</time>
            </trkpt>
            <trkpt lon="99.730389" lat="12.932560">
                <ele>48.203369</ele>
                <time>2006-02-25T09:06:38Z</time>
            </trkpt>
            <trkpt lon="99.730647" lat="12.932882">
                <ele>48.203369</ele>
                <time>2006-02-25T09:06:49Z</time>
            </trkpt>
            <trkpt lon="99.730883" lat="12.933333">
                <ele>48.203369</ele>
                <time>2006-02-25T09:07:04Z</time>
            </trkpt>
            <trkpt lon="99.731333" lat="12.934127">
                <ele>46.761230</ele>
                <time>2006-02-25T09:07:29Z</time>
            </trkpt>
            <trkpt lon="99.731719" lat="12.934599">
                <ele>45.799927</ele>
                <time>2006-02-25T09:07:44Z</time>
            </trkpt>
            <trkpt lon="99.732041" lat="12.934835">
                <ele>46.761230</ele>
                <time>2006-02-25T09:07:58Z</time>
            </trkpt>
            <trkpt lon="99.732256" lat="12.935092">
                <ele>47.722534</ele>
                <time>2006-02-25T09:08:13Z</time>
            </trkpt>
            <trkpt lon="99.732406" lat="12.935457">
                <ele>53.490479</ele>
                <time>2006-02-25T09:08:32Z</time>
            </trkpt>
            <trkpt lon="99.732492" lat="12.935822">
                <ele>55.413086</ele>
                <time>2006-02-25T09:08:47Z</time>
            </trkpt>
            <trkpt lon="99.732749" lat="12.936101">
                <ele>55.413086</ele>
                <time>2006-02-25T09:09:01Z</time>
            </trkpt>
            <trkpt lon="99.733093" lat="12.936101">
                <ele>56.374512</ele>
                <time>2006-02-25T09:09:13Z</time>
            </trkpt>
            <trkpt lon="99.733136" lat="12.936251">
                <ele>56.374512</ele>
                <time>2006-02-25T09:09:19Z</time>
            </trkpt>
            <trkpt lon="99.733028" lat="12.936831">
                <ele>56.374512</ele>
                <time>2006-02-25T09:09:36Z</time>
            </trkpt>
            <trkpt lon="99.732964" lat="12.937410">
                <ele>54.932373</ele>
                <time>2006-02-25T09:09:52Z</time>
            </trkpt>
            <trkpt lon="99.732985" lat="12.937431">
                <ele>54.451782</ele>
                <time>2006-02-25T09:09:56Z</time>
            </trkpt>
            <trkpt lon="99.733050" lat="12.937388">
                <ele>53.490479</ele>
                <time>2006-02-25T09:10:01Z</time>
            </trkpt>
            <trkpt lon="99.733114" lat="12.937324">
                <ele>53.009766</ele>
                <time>2006-02-25T09:10:05Z</time>
            </trkpt>
            <trkpt lon="99.733243" lat="12.937303">
                <ele>52.048584</ele>
                <time>2006-02-25T09:10:09Z</time>
            </trkpt>
            <trkpt lon="99.733672" lat="12.937388">
                <ele>49.645264</ele>
                <time>2006-02-25T09:10:23Z</time>
            </trkpt>
            <trkpt lon="99.734015" lat="12.937367">
                <ele>48.683960</ele>
                <time>2006-02-25T09:10:32Z</time>
            </trkpt>
            <trkpt lon="99.734595" lat="12.937367">
                <ele>46.280640</ele>
                <time>2006-02-25T09:10:47Z</time>
            </trkpt>
            <trkpt lon="99.734981" lat="12.937346">
                <ele>44.358032</ele>
                <time>2006-02-25T09:10:58Z</time>
            </trkpt>
            <trkpt lon="99.735496" lat="12.937517">
                <ele>44.358032</ele>
                <time>2006-02-25T09:11:12Z</time>
            </trkpt>
            <trkpt lon="99.736118" lat="12.937775">
                <ele>42.916016</ele>
                <time>2006-02-25T09:11:28Z</time>
            </trkpt>
            <trkpt lon="99.736161" lat="12.937796">
                <ele>42.916016</ele>
                <time>2006-02-25T09:11:29Z</time>
            </trkpt>
            <trkpt lon="99.736547" lat="12.937989">
                <ele>41.954712</ele>
                <time>2006-02-25T09:11:41Z</time>
            </trkpt>
            <trkpt lon="99.736569" lat="12.938011">
                <ele>41.954712</ele>
                <time>2006-02-25T09:11:42Z</time>
            </trkpt>
            <trkpt lon="99.736934" lat="12.938397">
                <ele>42.916016</ele>
                <time>2006-02-25T09:11:55Z</time>
            </trkpt>
            <trkpt lon="99.737298" lat="12.938805">
                <ele>40.993408</ele>
                <time>2006-02-25T09:12:10Z</time>
            </trkpt>
            <trkpt lon="99.737449" lat="12.938890">
                <ele>40.512817</ele>
                <time>2006-02-25T09:12:14Z</time>
            </trkpt>
            <trkpt lon="99.737835" lat="12.938955">
                <ele>40.993408</ele>
                <time>2006-02-25T09:12:24Z</time>
            </trkpt>
            <trkpt lon="99.738157" lat="12.938976">
                <ele>41.954712</ele>
                <time>2006-02-25T09:12:31Z</time>
            </trkpt>
            <trkpt lon="99.738328" lat="12.938976">
                <ele>41.954712</ele>
                <time>2006-02-25T09:12:35Z</time>
            </trkpt>
            <trkpt lon="99.738736" lat="12.939105">
                <ele>40.993408</ele>
                <time>2006-02-25T09:12:45Z</time>
            </trkpt>
            <trkpt lon="99.738908" lat="12.939148">
                <ele>40.993408</ele>
                <time>2006-02-25T09:12:49Z</time>
            </trkpt>
            <trkpt lon="99.739337" lat="12.939191">
                <ele>40.993408</ele>
                <time>2006-02-25T09:12:58Z</time>
            </trkpt>
            <trkpt lon="99.740067" lat="12.939148">
                <ele>40.993408</ele>
                <time>2006-02-25T09:13:15Z</time>
            </trkpt>
            <trkpt lon="99.740195" lat="12.939148">
                <ele>40.993408</ele>
                <time>2006-02-25T09:13:18Z</time>
            </trkpt>
            <trkpt lon="99.740818" lat="12.939126">
                <ele>42.435425</ele>
                <time>2006-02-25T09:13:33Z</time>
            </trkpt>
            <trkpt lon="99.740989" lat="12.939105">
                <ele>42.916016</ele>
                <time>2006-02-25T09:13:37Z</time>
            </trkpt>
            <trkpt lon="99.741955" lat="12.939126">
                <ele>41.954712</ele>
                <time>2006-02-25T09:13:57Z</time>
            </trkpt>
            <trkpt lon="99.742191" lat="12.939148">
                <ele>41.473999</ele>
                <time>2006-02-25T09:14:02Z</time>
            </trkpt>
            <trkpt lon="99.742920" lat="12.939212">
                <ele>39.551270</ele>
                <time>2006-02-25T09:14:16Z</time>
            </trkpt>
            <trkpt lon="99.743092" lat="12.939384">
                <ele>40.032104</ele>
                <time>2006-02-25T09:14:22Z</time>
            </trkpt>
            <trkpt lon="99.743092" lat="12.939684">
                <ele>40.512817</ele>
                <time>2006-02-25T09:14:31Z</time>
            </trkpt>
            <trkpt lon="99.743092" lat="12.939856">
                <ele>40.512817</ele>
                <time>2006-02-25T09:14:35Z</time>
            </trkpt>
            <trkpt lon="99.743092" lat="12.940800">
                <ele>40.993408</ele>
                <time>2006-02-25T09:14:55Z</time>
            </trkpt>
            <trkpt lon="99.743092" lat="12.941422">
                <ele>42.435425</ele>
                <time>2006-02-25T09:15:11Z</time>
            </trkpt>
            <trkpt lon="99.743114" lat="12.942259">
                <ele>40.993408</ele>
                <time>2006-02-25T09:15:29Z</time>
            </trkpt>
            <trkpt lon="99.743114" lat="12.942431">
                <ele>40.993408</ele>
                <time>2006-02-25T09:15:33Z</time>
            </trkpt>
            <trkpt lon="99.743092" lat="12.942560">
                <ele>40.993408</ele>
                <time>2006-02-25T09:15:41Z</time>
            </trkpt>
            <trkpt lon="99.743092" lat="12.943053">
                <ele>40.993408</ele>
                <time>2006-02-25T09:15:59Z</time>
            </trkpt>
            <trkpt lon="99.743092" lat="12.943439">
                <ele>40.993408</ele>
                <time>2006-02-25T09:16:11Z</time>
            </trkpt>
            <trkpt lon="99.743092" lat="12.944040">
                <ele>41.954712</ele>
                <time>2006-02-25T09:16:27Z</time>
            </trkpt>
            <trkpt lon="99.743071" lat="12.944448">
                <ele>42.435425</ele>
                <time>2006-02-25T09:16:38Z</time>
            </trkpt>
            <trkpt lon="99.742963" lat="12.945113">
                <ele>41.954712</ele>
                <time>2006-02-25T09:16:54Z</time>
            </trkpt>
            <trkpt lon="99.742448" lat="12.945757">
                <ele>42.435425</ele>
                <time>2006-02-25T09:17:13Z</time>
            </trkpt>
            <trkpt lon="99.741805" lat="12.946444">
                <ele>43.396606</ele>
                <time>2006-02-25T09:17:34Z</time>
            </trkpt>
            <trkpt lon="99.741333" lat="12.946916">
                <ele>44.358032</ele>
                <time>2006-02-25T09:17:49Z</time>
            </trkpt>
            <trkpt lon="99.741139" lat="12.947109">
                <ele>44.358032</ele>
                <time>2006-02-25T09:17:55Z</time>
            </trkpt>
            <trkpt lon="99.740496" lat="12.947774">
                <ele>44.358032</ele>
                <time>2006-02-25T09:18:15Z</time>
            </trkpt>
            <trkpt lon="99.740345" lat="12.947946">
                <ele>44.838623</ele>
                <time>2006-02-25T09:18:20Z</time>
            </trkpt>
            <trkpt lon="99.739809" lat="12.948482">
                <ele>44.838623</ele>
                <time>2006-02-25T09:18:38Z</time>
            </trkpt>
            <trkpt lon="99.739573" lat="12.948718">
                <ele>44.358032</ele>
                <time>2006-02-25T09:18:47Z</time>
            </trkpt>
            <trkpt lon="99.739380" lat="12.948825">
                <ele>44.358032</ele>
                <time>2006-02-25T09:18:52Z</time>
            </trkpt>
            <trkpt lon="99.739037" lat="12.948933">
                <ele>44.838623</ele>
                <time>2006-02-25T09:19:00Z</time>
            </trkpt>
            <trkpt lon="99.738307" lat="12.949383">
                <ele>44.838623</ele>
                <time>2006-02-25T09:19:18Z</time>
            </trkpt>
            <trkpt lon="99.737535" lat="12.949834">
                <ele>44.838623</ele>
                <time>2006-02-25T09:19:36Z</time>
            </trkpt>
            <trkpt lon="99.736891" lat="12.950370">
                <ele>44.838623</ele>
                <time>2006-02-25T09:19:51Z</time>
            </trkpt>
            <trkpt lon="99.736440" lat="12.950757">
                <ele>45.319214</ele>
                <time>2006-02-25T09:20:02Z</time>
            </trkpt>
            <trkpt lon="99.735775" lat="12.950993">
                <ele>45.799927</ele>
                <time>2006-02-25T09:20:17Z</time>
            </trkpt>
            <trkpt lon="99.735560" lat="12.951057">
                <ele>46.280640</ele>
                <time>2006-02-25T09:20:22Z</time>
            </trkpt>
            <trkpt lon="99.735367" lat="12.951057">
                <ele>45.799927</ele>
                <time>2006-02-25T09:20:27Z</time>
            </trkpt>
            <trkpt lon="99.735045" lat="12.950993">
                <ele>45.799927</ele>
                <time>2006-02-25T09:20:34Z</time>
            </trkpt>
            <trkpt lon="99.733994" lat="12.950714">
                <ele>45.799927</ele>
                <time>2006-02-25T09:20:55Z</time>
            </trkpt>
            <trkpt lon="99.733028" lat="12.950542">
                <ele>46.761230</ele>
                <time>2006-02-25T09:21:16Z</time>
            </trkpt>
            <trkpt lon="99.733071" lat="12.950306">
                <ele>46.761230</ele>
                <time>2006-02-25T09:21:23Z</time>
            </trkpt>
            <trkpt lon="99.733136" lat="12.950242">
                <ele>46.761230</ele>
                <time>2006-02-25T09:21:25Z</time>
            </trkpt>
            <trkpt lon="99.733243" lat="12.950156">
                <ele>46.280640</ele>
                <time>2006-02-25T09:21:29Z</time>
            </trkpt>
            <trkpt lon="99.733329" lat="12.949812">
                <ele>46.280640</ele>
                <time>2006-02-25T09:21:37Z</time>
            </trkpt>
            <trkpt lon="99.733329" lat="12.949576">
                <ele>46.761230</ele>
                <time>2006-02-25T09:21:44Z</time>
            </trkpt>
            <trkpt lon="99.733222" lat="12.949018">
                <ele>46.761230</ele>
                <time>2006-02-25T09:21:58Z</time>
            </trkpt>
            <trkpt lon="99.733179" lat="12.948933">
                <ele>46.280640</ele>
                <time>2006-02-25T09:22:00Z</time>
            </trkpt>
            <trkpt lon="99.732943" lat="12.948718">
                <ele>46.280640</ele>
                <time>2006-02-25T09:22:08Z</time>
            </trkpt>
            <trkpt lon="99.732621" lat="12.948461">
                <ele>46.761230</ele>
                <time>2006-02-25T09:22:18Z</time>
            </trkpt>
            <trkpt lon="99.732170" lat="12.948203">
                <ele>47.241821</ele>
                <time>2006-02-25T09:22:32Z</time>
            </trkpt>
            <trkpt lon="99.731698" lat="12.948074">
                <ele>46.280640</ele>
                <time>2006-02-25T09:22:45Z</time>
            </trkpt>
            <trkpt lon="99.731655" lat="12.948074">
                <ele>46.280640</ele>
                <time>2006-02-25T09:22:46Z</time>
            </trkpt>
            <trkpt lon="99.731569" lat="12.948117">
                <ele>46.280640</ele>
                <time>2006-02-25T09:22:48Z</time>
            </trkpt>
            <trkpt lon="99.731183" lat="12.948139">
                <ele>47.722534</ele>
                <time>2006-02-25T09:22:59Z</time>
            </trkpt>
            <trkpt lon="99.730647" lat="12.948053">
                <ele>48.203369</ele>
                <time>2006-02-25T09:23:15Z</time>
            </trkpt>
            <trkpt lon="99.730561" lat="12.947903">
                <ele>48.203369</ele>
                <time>2006-02-25T09:23:25Z</time>
            </trkpt>
            <trkpt lon="99.730432" lat="12.947495">
                <ele>49.164551</ele>
                <time>2006-02-25T09:23:42Z</time>
            </trkpt>
            <trkpt lon="99.730346" lat="12.947087">
                <ele>51.087158</ele>
                <time>2006-02-25T09:23:58Z</time>
            </trkpt>
            <trkpt lon="99.730239" lat="12.946701">
                <ele>53.490479</ele>
                <time>2006-02-25T09:24:14Z</time>
            </trkpt>
            <trkpt lon="99.730153" lat="12.946379">
                <ele>55.413086</ele>
                <time>2006-02-25T09:24:29Z</time>
            </trkpt>
            <trkpt lon="99.729981" lat="12.945864">
                <ele>56.855103</ele>
                <time>2006-02-25T09:24:48Z</time>
            </trkpt>
            <trkpt lon="99.729939" lat="12.945371">
                <ele>57.335815</ele>
                <time>2006-02-25T09:25:04Z</time>
            </trkpt>
            <trkpt lon="99.729831" lat="12.944984">
                <ele>57.335815</ele>
                <time>2006-02-25T09:25:16Z</time>
            </trkpt>
            <trkpt lon="99.729359" lat="12.944920">
                <ele>55.893799</ele>
                <time>2006-02-25T09:25:28Z</time>
            </trkpt>
            <trkpt lon="99.729295" lat="12.944920">
                <ele>56.374512</ele>
                <time>2006-02-25T09:25:29Z</time>
            </trkpt>
            <trkpt lon="99.728866" lat="12.944984">
                <ele>55.413086</ele>
                <time>2006-02-25T09:25:38Z</time>
            </trkpt>
            <trkpt lon="99.728673" lat="12.944963">
                <ele>56.374512</ele>
                <time>2006-02-25T09:25:43Z</time>
            </trkpt>
            <trkpt lon="99.727900" lat="12.944963">
                <ele>57.335815</ele>
                <time>2006-02-25T09:26:01Z</time>
            </trkpt>
            <trkpt lon="99.727235" lat="12.944984">
                <ele>55.413086</ele>
                <time>2006-02-25T09:26:17Z</time>
            </trkpt>
            <trkpt lon="99.726720" lat="12.945027">
                <ele>53.490479</ele>
                <time>2006-02-25T09:26:27Z</time>
            </trkpt>
            <trkpt lon="99.726484" lat="12.945006">
                <ele>52.529175</ele>
                <time>2006-02-25T09:26:31Z</time>
            </trkpt>
            <trkpt lon="99.726291" lat="12.945049">
                <ele>53.009766</ele>
                <time>2006-02-25T09:26:35Z</time>
            </trkpt>
            <trkpt lon="99.725883" lat="12.945027">
                <ele>53.971191</ele>
                <time>2006-02-25T09:26:44Z</time>
            </trkpt>
            <trkpt lon="99.725733" lat="12.945070">
                <ele>54.932373</ele>
                <time>2006-02-25T09:26:48Z</time>
            </trkpt>
            <trkpt lon="99.725196" lat="12.945070">
                <ele>55.413086</ele>
                <time>2006-02-25T09:27:02Z</time>
            </trkpt>
            <trkpt lon="99.725132" lat="12.945049">
                <ele>55.413086</ele>
                <time>2006-02-25T09:27:04Z</time>
            </trkpt>
            <trkpt lon="99.724874" lat="12.945049">
                <ele>55.893799</ele>
                <time>2006-02-25T09:27:10Z</time>
            </trkpt>
            <trkpt lon="99.724703" lat="12.945049">
                <ele>56.374512</ele>
                <time>2006-02-25T09:27:14Z</time>
            </trkpt>
            <trkpt lon="99.723845" lat="12.945049">
                <ele>57.816528</ele>
                <time>2006-02-25T09:27:34Z</time>
            </trkpt>
            <trkpt lon="99.723201" lat="12.945049">
                <ele>57.335815</ele>
                <time>2006-02-25T09:27:49Z</time>
            </trkpt>
            <trkpt lon="99.722514" lat="12.945070">
                <ele>56.374512</ele>
                <time>2006-02-25T09:28:03Z</time>
            </trkpt>
            <trkpt lon="99.722021" lat="12.945070">
                <ele>56.374512</ele>
                <time>2006-02-25T09:28:14Z</time>
            </trkpt>
            <trkpt lon="99.721870" lat="12.945092">
                <ele>55.893799</ele>
                <time>2006-02-25T09:28:17Z</time>
            </trkpt>
            <trkpt lon="99.721699" lat="12.945092">
                <ele>55.893799</ele>
                <time>2006-02-25T09:28:21Z</time>
            </trkpt>
            <trkpt lon="99.721334" lat="12.945178">
                <ele>55.893799</ele>
                <time>2006-02-25T09:28:34Z</time>
            </trkpt>
            <trkpt lon="99.721162" lat="12.945178">
                <ele>56.855103</ele>
                <time>2006-02-25T09:28:45Z</time>
            </trkpt>
            <trkpt lon="99.721270" lat="12.945178">
                <ele>55.893799</ele>
                <time>2006-02-25T09:28:54Z</time>
            </trkpt>
            <trkpt lon="99.721377" lat="12.945178">
                <ele>57.816528</ele>
                <time>2006-02-25T09:29:10Z</time>
            </trkpt>
            <trkpt lon="99.721463" lat="12.945156">
                <ele>58.297119</ele>
                <time>2006-02-25T09:29:24Z</time>
            </trkpt>
            <trkpt lon="99.721484" lat="12.945135">
                <ele>58.777710</ele>
                <time>2006-02-25T09:29:27Z</time>
            </trkpt>
            <trkpt lon="99.721484" lat="12.945027">
                <ele>58.777710</ele>
                <time>2006-02-25T09:29:34Z</time>
            </trkpt>
            <trkpt lon="99.721484" lat="12.944791">
                <ele>58.777710</ele>
                <time>2006-02-25T09:29:49Z</time>
            </trkpt>
            <trkpt lon="99.721484" lat="12.944791">
                <ele>59.258423</ele>
                <time>2006-02-25T09:29:52Z</time>
            </trkpt>
            <trkpt lon="99.721441" lat="12.945113">
                <ele>58.777710</ele>
                <time>2006-02-25T09:30:04Z</time>
            </trkpt>
            <trkpt lon="99.721248" lat="12.945156">
                <ele>59.258423</ele>
                <time>2006-02-25T09:30:10Z</time>
            </trkpt>
            <trkpt lon="99.720862" lat="12.945113">
                <ele>60.219727</ele>
                <time>2006-02-25T09:30:23Z</time>
            </trkpt>
            <trkpt lon="99.720604" lat="12.945092">
                <ele>59.739136</ele>
                <time>2006-02-25T09:30:36Z</time>
            </trkpt>
            <trkpt lon="99.720583" lat="12.945092">
                <ele>59.739136</ele>
                <time>2006-02-25T09:30:44Z</time>
            </trkpt>
            <trkpt lon="99.720304" lat="12.945113">
                <ele>60.700317</ele>
                <time>2006-02-25T09:30:57Z</time>
            </trkpt>
            <trkpt lon="99.720325" lat="12.945135">
                <ele>60.700317</ele>
                <time>2006-02-25T09:31:06Z</time>
            </trkpt>
            <trkpt lon="99.720669" lat="12.945135">
                <ele>58.777710</ele>
                <time>2006-02-25T09:31:17Z</time>
            </trkpt>
            <trkpt lon="99.721184" lat="12.945199">
                <ele>55.893799</ele>
                <time>2006-02-25T09:31:33Z</time>
            </trkpt>
            <trkpt lon="99.721591" lat="12.945135">
                <ele>55.413086</ele>
                <time>2006-02-25T09:31:46Z</time>
            </trkpt>
            <trkpt lon="99.721913" lat="12.945113">
                <ele>55.893799</ele>
                <time>2006-02-25T09:31:55Z</time>
            </trkpt>
            <trkpt lon="99.721956" lat="12.945435">
                <ele>54.932373</ele>
                <time>2006-02-25T09:32:05Z</time>
            </trkpt>
            <trkpt lon="99.721849" lat="12.946036">
                <ele>54.451782</ele>
                <time>2006-02-25T09:32:22Z</time>
            </trkpt>
            <trkpt lon="99.721763" lat="12.946079">
                <ele>54.451782</ele>
                <time>2006-02-25T09:32:27Z</time>
            </trkpt>
            <trkpt lon="99.721656" lat="12.946014">
                <ele>54.932373</ele>
                <time>2006-02-25T09:32:32Z</time>
            </trkpt>
            <trkpt lon="99.721549" lat="12.946036">
                <ele>54.932373</ele>
                <time>2006-02-25T09:32:36Z</time>
            </trkpt>
            <trkpt lon="99.721506" lat="12.946057">
                <ele>55.413086</ele>
                <time>2006-02-25T09:32:38Z</time>
            </trkpt>
            <trkpt lon="99.721484" lat="12.946358">
                <ele>55.893799</ele>
                <time>2006-02-25T09:32:48Z</time>
            </trkpt>
            <trkpt lon="99.721441" lat="12.946658">
                <ele>56.374512</ele>
                <time>2006-02-25T09:32:57Z</time>
            </trkpt>
            <trkpt lon="99.721549" lat="12.947023">
                <ele>54.451782</ele>
                <time>2006-02-25T09:33:06Z</time>
            </trkpt>
            <trkpt lon="99.721570" lat="12.947195">
                <ele>53.971191</ele>
                <time>2006-02-25T09:33:10Z</time>
            </trkpt>
            <trkpt lon="99.721527" lat="12.947431">
                <ele>53.490479</ele>
                <time>2006-02-25T09:33:16Z</time>
            </trkpt>
            <trkpt lon="99.721527" lat="12.948074">
                <ele>52.529175</ele>
                <time>2006-02-25T09:33:30Z</time>
            </trkpt>
            <trkpt lon="99.721591" lat="12.948675">
                <ele>54.451782</ele>
                <time>2006-02-25T09:33:43Z</time>
            </trkpt>
            <trkpt lon="99.721613" lat="12.949169">
                <ele>55.893799</ele>
                <time>2006-02-25T09:33:57Z</time>
            </trkpt>
            <trkpt lon="99.721377" lat="12.949083">
                <ele>55.413086</ele>
                <time>2006-02-25T09:34:05Z</time>
            </trkpt>
            <trkpt lon="99.721227" lat="12.948976">
                <ele>55.413086</ele>
                <time>2006-02-25T09:34:09Z</time>
            </trkpt>
            <trkpt lon="99.720926" lat="12.948911">
                <ele>54.932373</ele>
                <time>2006-02-25T09:34:18Z</time>
            </trkpt>
            <trkpt lon="99.720626" lat="12.949104">
                <ele>55.413086</ele>
                <time>2006-02-25T09:34:29Z</time>
            </trkpt>
            <trkpt lon="99.720347" lat="12.948976">
                <ele>56.374512</ele>
                <time>2006-02-25T09:34:38Z</time>
            </trkpt>
            <trkpt lon="99.719961" lat="12.949212">
                <ele>57.335815</ele>
                <time>2006-02-25T09:34:51Z</time>
            </trkpt>
            <trkpt lon="99.719338" lat="12.949533">
                <ele>56.855103</ele>
                <time>2006-02-25T09:35:09Z</time>
            </trkpt>
            <trkpt lon="99.719081" lat="12.949641">
                <ele>57.335815</ele>
                <time>2006-02-25T09:35:16Z</time>
            </trkpt>
            <trkpt lon="99.718866" lat="12.949491">
                <ele>57.335815</ele>
                <time>2006-02-25T09:35:24Z</time>
            </trkpt>
            <trkpt lon="99.718566" lat="12.949083">
                <ele>58.297119</ele>
                <time>2006-02-25T09:35:40Z</time>
            </trkpt>
            <trkpt lon="99.718394" lat="12.948911">
                <ele>58.297119</ele>
                <time>2006-02-25T09:35:52Z</time>
            </trkpt>
            <trkpt lon="99.717965" lat="12.948890">
                <ele>59.739136</ele>
                <time>2006-02-25T09:36:10Z</time>
            </trkpt>
            <trkpt lon="99.717643" lat="12.948954">
                <ele>60.219727</ele>
                <time>2006-02-25T09:36:20Z</time>
            </trkpt>
            <trkpt lon="99.717214" lat="12.948976">
                <ele>60.700317</ele>
                <time>2006-02-25T09:36:33Z</time>
            </trkpt>
            <trkpt lon="99.716656" lat="12.948997">
                <ele>62.142334</ele>
                <time>2006-02-25T09:36:50Z</time>
            </trkpt>
            <trkpt lon="99.716141" lat="12.948976">
                <ele>63.103638</ele>
                <time>2006-02-25T09:37:07Z</time>
            </trkpt>
            <trkpt lon="99.715562" lat="12.948997">
                <ele>66.468262</ele>
                <time>2006-02-25T09:37:26Z</time>
            </trkpt>
            <trkpt lon="99.715133" lat="12.949018">
                <ele>68.390869</ele>
                <time>2006-02-25T09:37:42Z</time>
            </trkpt>
            <trkpt lon="99.714596" lat="12.949018">
                <ele>70.313477</ele>
                <time>2006-02-25T09:38:00Z</time>
            </trkpt>
            <trkpt lon="99.714575" lat="12.949061">
                <ele>69.832886</ele>
                <time>2006-02-25T09:38:04Z</time>
            </trkpt>
            <trkpt lon="99.714553" lat="12.949190">
                <ele>69.832886</ele>
                <time>2006-02-25T09:38:11Z</time>
            </trkpt>
            <trkpt lon="99.714231" lat="12.949276">
                <ele>70.313477</ele>
                <time>2006-02-25T09:38:26Z</time>
            </trkpt>
            <trkpt lon="99.714231" lat="12.949276">
                <ele>70.794189</ele>
                <time>2006-02-25T09:38:42Z</time>
            </trkpt>
            <trkpt lon="99.714210" lat="12.949255">
                <ele>71.274902</ele>
                <time>2006-02-25T09:39:38Z</time>
            </trkpt>
            <trkpt lon="99.714231" lat="12.949255">
                <ele>68.871582</ele>
                <time>2006-02-25T09:45:16Z</time>
            </trkpt>
            <trkpt lon="99.714060" lat="12.949276">
                <ele>69.352295</ele>
                <time>2006-02-25T09:45:36Z</time>
            </trkpt>
            <trkpt lon="99.713738" lat="12.949319">
                <ele>69.832886</ele>
                <time>2006-02-25T09:45:48Z</time>
            </trkpt>
            <trkpt lon="99.713759" lat="12.949662">
                <ele>68.871582</ele>
                <time>2006-02-25T09:46:01Z</time>
            </trkpt>
            <trkpt lon="99.713802" lat="12.949877">
                <ele>67.910278</ele>
                <time>2006-02-25T09:46:09Z</time>
            </trkpt>
            <trkpt lon="99.713480" lat="12.950070">
                <ele>66.948975</ele>
                <time>2006-02-25T09:46:21Z</time>
            </trkpt>
            <trkpt lon="99.712987" lat="12.950284">
                <ele>66.948975</ele>
                <time>2006-02-25T09:46:36Z</time>
            </trkpt>
            <trkpt lon="99.712472" lat="12.950499">
                <ele>69.352295</ele>
                <time>2006-02-25T09:46:53Z</time>
            </trkpt>
            <trkpt lon="99.712107" lat="12.950628">
                <ele>70.794189</ele>
                <time>2006-02-25T09:47:09Z</time>
            </trkpt>
            <trkpt lon="99.711764" lat="12.950735">
                <ele>73.678223</ele>
                <time>2006-02-25T09:47:24Z</time>
            </trkpt>
            <trkpt lon="99.711378" lat="12.950885">
                <ele>74.639526</ele>
                <time>2006-02-25T09:47:36Z</time>
            </trkpt>
            <trkpt lon="99.711013" lat="12.950928">
                <ele>75.600830</ele>
                <time>2006-02-25T09:47:50Z</time>
            </trkpt>
            <trkpt lon="99.710541" lat="12.950993">
                <ele>77.042847</ele>
                <time>2006-02-25T09:48:07Z</time>
            </trkpt>
            <trkpt lon="99.710133" lat="12.951057">
                <ele>79.446045</ele>
                <time>2006-02-25T09:48:24Z</time>
            </trkpt>
            <trkpt lon="99.709918" lat="12.951121">
                <ele>78.965454</ele>
                <time>2006-02-25T09:48:31Z</time>
            </trkpt>
            <trkpt lon="99.709275" lat="12.951443">
                <ele>74.639526</ele>
                <time>2006-02-25T09:48:45Z</time>
            </trkpt>
            <trkpt lon="99.708910" lat="12.951615">
                <ele>75.120239</ele>
                <time>2006-02-25T09:48:57Z</time>
            </trkpt>
            <trkpt lon="99.708631" lat="12.951765">
                <ele>78.004028</ele>
                <time>2006-02-25T09:49:12Z</time>
            </trkpt>
            <trkpt lon="99.708138" lat="12.951980">
                <ele>81.849365</ele>
                <time>2006-02-25T09:49:31Z</time>
            </trkpt>
            <trkpt lon="99.707644" lat="12.952194">
                <ele>83.291382</ele>
                <time>2006-02-25T09:49:49Z</time>
            </trkpt>
            <trkpt lon="99.707129" lat="12.952452">
                <ele>85.213989</ele>
                <time>2006-02-25T09:50:08Z</time>
            </trkpt>
            <trkpt lon="99.706593" lat="12.952688">
                <ele>84.733398</ele>
                <time>2006-02-25T09:50:24Z</time>
            </trkpt>
            <trkpt lon="99.706013" lat="12.952967">
                <ele>82.810791</ele>
                <time>2006-02-25T09:50:40Z</time>
            </trkpt>
            <trkpt lon="99.705391" lat="12.953224">
                <ele>83.771973</ele>
                <time>2006-02-25T09:50:57Z</time>
            </trkpt>
            <trkpt lon="99.705048" lat="12.953396">
                <ele>83.291382</ele>
                <time>2006-02-25T09:51:06Z</time>
            </trkpt>
            <trkpt lon="99.704597" lat="12.953546">
                <ele>82.810791</ele>
                <time>2006-02-25T09:51:19Z</time>
            </trkpt>
            <trkpt lon="99.704189" lat="12.953739">
                <ele>87.617188</ele>
                <time>2006-02-25T09:51:34Z</time>
            </trkpt>
            <trkpt lon="99.703910" lat="12.953825">
                <ele>89.059326</ele>
                <time>2006-02-25T09:51:46Z</time>
            </trkpt>
            <trkpt lon="99.703803" lat="12.953396">
                <ele>87.617188</ele>
                <time>2006-02-25T09:52:00Z</time>
            </trkpt>
            <trkpt lon="99.703739" lat="12.952774">
                <ele>88.578735</ele>
                <time>2006-02-25T09:52:17Z</time>
            </trkpt>
            <trkpt lon="99.703696" lat="12.952430">
                <ele>92.423950</ele>
                <time>2006-02-25T09:52:33Z</time>
            </trkpt>
            <trkpt lon="99.703674" lat="12.952087">
                <ele>90.981934</ele>
                <time>2006-02-25T09:52:48Z</time>
            </trkpt>
            <trkpt lon="99.703588" lat="12.951508">
                <ele>89.059326</ele>
                <time>2006-02-25T09:53:00Z</time>
            </trkpt>
            <trkpt lon="99.703460" lat="12.951229">
                <ele>88.578735</ele>
                <time>2006-02-25T09:53:06Z</time>
            </trkpt>
            <trkpt lon="99.703352" lat="12.950907">
                <ele>86.175293</ele>
                <time>2006-02-25T09:53:13Z</time>
            </trkpt>
            <trkpt lon="99.703031" lat="12.950542">
                <ele>85.213989</ele>
                <time>2006-02-25T09:53:22Z</time>
            </trkpt>
            <trkpt lon="99.702837" lat="12.950370">
                <ele>83.291382</ele>
                <time>2006-02-25T09:53:27Z</time>
            </trkpt>
            <trkpt lon="99.702666" lat="12.950263">
                <ele>82.330078</ele>
                <time>2006-02-25T09:53:31Z</time>
            </trkpt>
            <trkpt lon="99.702280" lat="12.949920">
                <ele>82.330078</ele>
                <time>2006-02-25T09:53:45Z</time>
            </trkpt>
            <trkpt lon="99.702129" lat="12.949619">
                <ele>83.771973</ele>
                <time>2006-02-25T09:54:00Z</time>
            </trkpt>
            <trkpt lon="99.701958" lat="12.949126">
                <ele>84.733398</ele>
                <time>2006-02-25T09:54:16Z</time>
            </trkpt>
            <trkpt lon="99.701807" lat="12.948933">
                <ele>84.733398</ele>
                <time>2006-02-25T09:54:28Z</time>
            </trkpt>
            <trkpt lon="99.701807" lat="12.948954">
                <ele>84.252686</ele>
                <time>2006-02-25T09:54:30Z</time>
            </trkpt>
            <trkpt lon="99.701915" lat="12.949083">
                <ele>83.291382</ele>
                <time>2006-02-25T09:54:37Z</time>
            </trkpt>
            <trkpt lon="99.702108" lat="12.949598">
                <ele>82.330078</ele>
                <time>2006-02-25T09:54:53Z</time>
            </trkpt>
            <trkpt lon="99.702280" lat="12.950006">
                <ele>80.888184</ele>
                <time>2006-02-25T09:55:08Z</time>
            </trkpt>
            <trkpt lon="99.702301" lat="12.950027">
                <ele>81.368774</ele>
                <time>2006-02-25T09:55:13Z</time>
            </trkpt>
            <trkpt lon="99.702387" lat="12.950006">
                <ele>80.888184</ele>
                <time>2006-02-25T09:55:17Z</time>
            </trkpt>
            <trkpt lon="99.702623" lat="12.949727">
                <ele>79.446045</ele>
                <time>2006-02-25T09:55:30Z</time>
            </trkpt>
            <trkpt lon="99.703074" lat="12.949147">
                <ele>76.562134</ele>
                <time>2006-02-25T09:55:46Z</time>
            </trkpt>
            <trkpt lon="99.703588" lat="12.948353">
                <ele>76.562134</ele>
                <time>2006-02-25T09:56:04Z</time>
            </trkpt>
            <trkpt lon="99.703975" lat="12.947452">
                <ele>75.600830</ele>
                <time>2006-02-25T09:56:22Z</time>
            </trkpt>
            <trkpt lon="99.704447" lat="12.946315">
                <ele>74.639526</ele>
                <time>2006-02-25T09:56:44Z</time>
            </trkpt>
            <trkpt lon="99.704854" lat="12.945392">
                <ele>72.716919</ele>
                <time>2006-02-25T09:57:02Z</time>
            </trkpt>
            <trkpt lon="99.705048" lat="12.944963">
                <ele>72.236206</ele>
                <time>2006-02-25T09:57:11Z</time>
            </trkpt>
            <trkpt lon="99.705069" lat="12.944663">
                <ele>71.274902</ele>
                <time>2006-02-25T09:57:17Z</time>
            </trkpt>
            <trkpt lon="99.704962" lat="12.943997">
                <ele>73.678223</ele>
                <time>2006-02-25T09:57:34Z</time>
            </trkpt>
            <trkpt lon="99.704940" lat="12.943397">
                <ele>76.081421</ele>
                <time>2006-02-25T09:57:52Z</time>
            </trkpt>
            <trkpt lon="99.704940" lat="12.942839">
                <ele>78.004028</ele>
                <time>2006-02-25T09:58:11Z</time>
            </trkpt>
            <trkpt lon="99.704940" lat="12.942410">
                <ele>80.407471</ele>
                <time>2006-02-25T09:58:28Z</time>
            </trkpt>
            <trkpt lon="99.704983" lat="12.942281">
                <ele>81.849365</ele>
                <time>2006-02-25T09:58:36Z</time>
            </trkpt>
            <trkpt lon="99.705069" lat="12.942259">
                <ele>82.330078</ele>
                <time>2006-02-25T09:58:40Z</time>
            </trkpt>
            <trkpt lon="99.705670" lat="12.942195">
                <ele>80.407471</ele>
                <time>2006-02-25T09:58:59Z</time>
            </trkpt>
            <trkpt lon="99.706421" lat="12.942109">
                <ele>81.368774</ele>
                <time>2006-02-25T09:59:18Z</time>
            </trkpt>
            <trkpt lon="99.707258" lat="12.941895">
                <ele>81.368774</ele>
                <time>2006-02-25T09:59:37Z</time>
            </trkpt>
            <trkpt lon="99.708202" lat="12.941465">
                <ele>78.484741</ele>
                <time>2006-02-25T09:59:57Z</time>
            </trkpt>
            <trkpt lon="99.708374" lat="12.941380">
                <ele>78.484741</ele>
                <time>2006-02-25T10:00:01Z</time>
            </trkpt>
            <trkpt lon="99.708374" lat="12.941315">
                <ele>78.965454</ele>
                <time>2006-02-25T10:00:05Z</time>
            </trkpt>
            <trkpt lon="99.708202" lat="12.941401">
                <ele>79.446045</ele>
                <time>2006-02-25T10:00:12Z</time>
            </trkpt>
            <trkpt lon="99.708095" lat="12.941315">
                <ele>77.523438</ele>
                <time>2006-02-25T10:00:19Z</time>
            </trkpt>
            <trkpt lon="99.707901" lat="12.940843">
                <ele>82.330078</ele>
                <time>2006-02-25T10:00:39Z</time>
            </trkpt>
            <trkpt lon="99.707794" lat="12.940521">
                <ele>84.252686</ele>
                <time>2006-02-25T10:00:53Z</time>
            </trkpt>
            <trkpt lon="99.707665" lat="12.940135">
                <ele>88.578735</ele>
                <time>2006-02-25T10:01:11Z</time>
            </trkpt>
            <trkpt lon="99.707773" lat="12.939899">
                <ele>90.020630</ele>
                <time>2006-02-25T10:01:25Z</time>
            </trkpt>
            <trkpt lon="99.708266" lat="12.939448">
                <ele>87.136597</ele>
                <time>2006-02-25T10:01:37Z</time>
            </trkpt>
            <trkpt lon="99.708395" lat="12.939212">
                <ele>87.617188</ele>
                <time>2006-02-25T10:01:47Z</time>
            </trkpt>
            <trkpt lon="99.708502" lat="12.938890">
                <ele>90.501343</ele>
                <time>2006-02-25T10:02:06Z</time>
            </trkpt>
            <trkpt lon="99.708674" lat="12.938504">
                <ele>91.462524</ele>
                <time>2006-02-25T10:02:23Z</time>
            </trkpt>
            <trkpt lon="99.708738" lat="12.938375">
                <ele>91.462524</ele>
                <time>2006-02-25T10:02:28Z</time>
            </trkpt>
            <trkpt lon="99.708996" lat="12.938418">
                <ele>90.020630</ele>
                <time>2006-02-25T10:02:36Z</time>
            </trkpt>
            <trkpt lon="99.709296" lat="12.938719">
                <ele>86.175293</ele>
                <time>2006-02-25T10:02:50Z</time>
            </trkpt>
            <trkpt lon="99.709425" lat="12.938848">
                <ele>86.175293</ele>
                <time>2006-02-25T10:02:55Z</time>
            </trkpt>
            <trkpt lon="99.709554" lat="12.938933">
                <ele>85.694580</ele>
                <time>2006-02-25T10:03:01Z</time>
            </trkpt>
            <trkpt lon="99.709640" lat="12.938912">
                <ele>85.694580</ele>
                <time>2006-02-25T10:03:03Z</time>
            </trkpt>
            <trkpt lon="99.710047" lat="12.938569">
                <ele>85.213989</ele>
                <time>2006-02-25T10:03:21Z</time>
            </trkpt>
            <trkpt lon="99.710412" lat="12.938161">
                <ele>87.136597</ele>
                <time>2006-02-25T10:03:34Z</time>
            </trkpt>
            <trkpt lon="99.710455" lat="12.937903">
                <ele>85.694580</ele>
                <time>2006-02-25T10:03:40Z</time>
            </trkpt>
            <trkpt lon="99.710348" lat="12.937603">
                <ele>84.252686</ele>
                <time>2006-02-25T10:03:47Z</time>
            </trkpt>
            <trkpt lon="99.710047" lat="12.937474">
                <ele>84.733398</ele>
                <time>2006-02-25T10:03:57Z</time>
            </trkpt>
            <trkpt lon="99.709833" lat="12.937324">
                <ele>85.694580</ele>
                <time>2006-02-25T10:04:06Z</time>
            </trkpt>
            <trkpt lon="99.709404" lat="12.936530">
                <ele>83.771973</ele>
                <time>2006-02-25T10:04:26Z</time>
            </trkpt>
            <trkpt lon="99.709296" lat="12.936122">
                <ele>84.252686</ele>
                <time>2006-02-25T10:04:42Z</time>
            </trkpt>
            <trkpt lon="99.709125" lat="12.935865">
                <ele>84.252686</ele>
                <time>2006-02-25T10:04:57Z</time>
            </trkpt>
            <trkpt lon="99.708717" lat="12.935843">
                <ele>84.252686</ele>
                <time>2006-02-25T10:05:14Z</time>
            </trkpt>
            <trkpt lon="99.708374" lat="12.935736">
                <ele>90.020630</ele>
                <time>2006-02-25T10:05:33Z</time>
            </trkpt>
            <trkpt lon="99.708288" lat="12.935565">
                <ele>90.981934</ele>
                <time>2006-02-25T10:05:42Z</time>
            </trkpt>
            <trkpt lon="99.708331" lat="12.934921">
                <ele>87.617188</ele>
                <time>2006-02-25T10:05:54Z</time>
            </trkpt>
            <trkpt lon="99.708374" lat="12.934749">
                <ele>87.617188</ele>
                <time>2006-02-25T10:05:58Z</time>
            </trkpt>
            <trkpt lon="99.708545" lat="12.934620">
                <ele>85.694580</ele>
                <time>2006-02-25T10:06:03Z</time>
            </trkpt>
            <trkpt lon="99.708652" lat="12.934577">
                <ele>85.694580</ele>
                <time>2006-02-25T10:06:05Z</time>
            </trkpt>
            <trkpt lon="99.708867" lat="12.934234">
                <ele>83.771973</ele>
                <time>2006-02-25T10:06:14Z</time>
            </trkpt>
            <trkpt lon="99.708846" lat="12.934148">
                <ele>83.291382</ele>
                <time>2006-02-25T10:06:17Z</time>
            </trkpt>
            <trkpt lon="99.708717" lat="12.933505">
                <ele>81.849365</ele>
                <time>2006-02-25T10:06:34Z</time>
            </trkpt>
            <trkpt lon="99.708674" lat="12.933204">
                <ele>81.849365</ele>
                <time>2006-02-25T10:06:41Z</time>
            </trkpt>
            <trkpt lon="99.708309" lat="12.933204">
                <ele>83.771973</ele>
                <time>2006-02-25T10:06:53Z</time>
            </trkpt>
            <trkpt lon="99.708202" lat="12.933161">
                <ele>83.291382</ele>
                <time>2006-02-25T10:06:56Z</time>
            </trkpt>
            <trkpt lon="99.708159" lat="12.932947">
                <ele>84.733398</ele>
                <time>2006-02-25T10:07:02Z</time>
            </trkpt>
            <trkpt lon="99.708266" lat="12.932239">
                <ele>80.888184</ele>
                <time>2006-02-25T10:07:22Z</time>
            </trkpt>
            <trkpt lon="99.708309" lat="12.931552">
                <ele>82.330078</ele>
                <time>2006-02-25T10:07:37Z</time>
            </trkpt>
            <trkpt lon="99.708288" lat="12.930887">
                <ele>84.733398</ele>
                <time>2006-02-25T10:07:51Z</time>
            </trkpt>
            <trkpt lon="99.708009" lat="12.930608">
                <ele>83.291382</ele>
                <time>2006-02-25T10:08:03Z</time>
            </trkpt>
            <trkpt lon="99.708009" lat="12.930586">
                <ele>80.888184</ele>
                <time>2006-02-25T10:08:09Z</time>
            </trkpt>
            <trkpt lon="99.708352" lat="12.930651">
                <ele>78.004028</ele>
                <time>2006-02-25T10:08:22Z</time>
            </trkpt>
            <trkpt lon="99.708459" lat="12.930651">
                <ele>77.042847</ele>
                <time>2006-02-25T10:08:25Z</time>
            </trkpt>
            <trkpt lon="99.708631" lat="12.930694">
                <ele>75.120239</ele>
                <time>2006-02-25T10:08:29Z</time>
            </trkpt>
            <trkpt lon="99.709275" lat="12.930694">
                <ele>73.197632</ele>
                <time>2006-02-25T10:08:44Z</time>
            </trkpt>
            <trkpt lon="99.709961" lat="12.930865">
                <ele>71.274902</ele>
                <time>2006-02-25T10:08:58Z</time>
            </trkpt>
            <trkpt lon="99.710326" lat="12.930951">
                <ele>66.948975</ele>
                <time>2006-02-25T10:09:05Z</time>
            </trkpt>
            <trkpt lon="99.710519" lat="12.930865">
                <ele>66.948975</ele>
                <time>2006-02-25T10:09:13Z</time>
            </trkpt>
            <trkpt lon="99.710605" lat="12.930350">
                <ele>67.910278</ele>
                <time>2006-02-25T10:09:26Z</time>
            </trkpt>
            <trkpt lon="99.710648" lat="12.930200">
                <ele>67.429688</ele>
                <time>2006-02-25T10:09:30Z</time>
            </trkpt>
            <trkpt lon="99.710691" lat="12.929621">
                <ele>67.429688</ele>
                <time>2006-02-25T10:09:44Z</time>
            </trkpt>
            <trkpt lon="99.710906" lat="12.929556">
                <ele>66.468262</ele>
                <time>2006-02-25T10:09:53Z</time>
            </trkpt>
            <trkpt lon="99.710970" lat="12.929578">
                <ele>64.545654</ele>
                <time>2006-02-25T10:10:03Z</time>
            </trkpt>
            <trkpt lon="99.711313" lat="12.929599">
                <ele>65.507080</ele>
                <time>2006-02-25T10:10:17Z</time>
            </trkpt>
            <trkpt lon="99.711635" lat="12.929428">
                <ele>66.468262</ele>
                <time>2006-02-25T10:10:33Z</time>
            </trkpt>
            <trkpt lon="99.711828" lat="12.929299">
                <ele>65.987671</ele>
                <time>2006-02-25T10:10:38Z</time>
            </trkpt>
            <trkpt lon="99.712021" lat="12.929235">
                <ele>65.507080</ele>
                <time>2006-02-25T10:10:42Z</time>
            </trkpt>
            <trkpt lon="99.712644" lat="12.929299">
                <ele>63.584351</ele>
                <time>2006-02-25T10:10:56Z</time>
            </trkpt>
            <trkpt lon="99.712729" lat="12.928870">
                <ele>63.584351</ele>
                <time>2006-02-25T10:11:09Z</time>
            </trkpt>
            <trkpt lon="99.712794" lat="12.928097">
                <ele>63.103638</ele>
                <time>2006-02-25T10:11:25Z</time>
            </trkpt>
            <trkpt lon="99.712794" lat="12.927604">
                <ele>64.065063</ele>
                <time>2006-02-25T10:11:36Z</time>
            </trkpt>
            <trkpt lon="99.712858" lat="12.926853">
                <ele>63.584351</ele>
                <time>2006-02-25T10:11:52Z</time>
            </trkpt>
            <trkpt lon="99.712944" lat="12.925801">
                <ele>64.065063</ele>
                <time>2006-02-25T10:12:13Z</time>
            </trkpt>
            <trkpt lon="99.713030" lat="12.925158">
                <ele>64.065063</ele>
                <time>2006-02-25T10:12:26Z</time>
            </trkpt>
            <trkpt lon="99.713030" lat="12.924664">
                <ele>66.468262</ele>
                <time>2006-02-25T10:12:41Z</time>
            </trkpt>
            <trkpt lon="99.712729" lat="12.924492">
                <ele>65.987671</ele>
                <time>2006-02-25T10:12:54Z</time>
            </trkpt>
            <trkpt lon="99.712021" lat="12.924192">
                <ele>65.507080</ele>
                <time>2006-02-25T10:13:11Z</time>
            </trkpt>
            <trkpt lon="99.710948" lat="12.923634">
                <ele>67.910278</ele>
                <time>2006-02-25T10:13:33Z</time>
            </trkpt>
            <trkpt lon="99.710004" lat="12.923162">
                <ele>67.910278</ele>
                <time>2006-02-25T10:13:52Z</time>
            </trkpt>
            <trkpt lon="99.708953" lat="12.922647">
                <ele>68.871582</ele>
                <time>2006-02-25T10:14:13Z</time>
            </trkpt>
            <trkpt lon="99.708202" lat="12.922239">
                <ele>71.274902</ele>
                <time>2006-02-25T10:14:29Z</time>
            </trkpt>
            <trkpt lon="99.707966" lat="12.922132">
                <ele>71.274902</ele>
                <time>2006-02-25T10:14:40Z</time>
            </trkpt>
            <trkpt lon="99.707623" lat="12.921982">
                <ele>70.794189</ele>
                <time>2006-02-25T10:14:55Z</time>
            </trkpt>
            <trkpt lon="99.707644" lat="12.922025">
                <ele>70.313477</ele>
                <time>2006-02-25T10:14:59Z</time>
            </trkpt>
            <trkpt lon="99.707708" lat="12.922046">
                <ele>66.948975</ele>
                <time>2006-02-25T10:15:02Z</time>
            </trkpt>
            <trkpt lon="99.707837" lat="12.922089">
                <ele>66.468262</ele>
                <time>2006-02-25T10:15:05Z</time>
            </trkpt>
            <trkpt lon="99.708138" lat="12.922218">
                <ele>66.948975</ele>
                <time>2006-02-25T10:15:12Z</time>
            </trkpt>
            <trkpt lon="99.708245" lat="12.922132">
                <ele>67.429688</ele>
                <time>2006-02-25T10:15:16Z</time>
            </trkpt>
            <trkpt lon="99.708588" lat="12.921317">
                <ele>66.948975</ele>
                <time>2006-02-25T10:15:37Z</time>
            </trkpt>
            <trkpt lon="99.709039" lat="12.920523">
                <ele>68.871582</ele>
                <time>2006-02-25T10:15:59Z</time>
            </trkpt>
            <trkpt lon="99.709682" lat="12.919428">
                <ele>68.390869</ele>
                <time>2006-02-25T10:16:25Z</time>
            </trkpt>
            <trkpt lon="99.710197" lat="12.918527">
                <ele>70.794189</ele>
                <time>2006-02-25T10:16:51Z</time>
            </trkpt>
            <trkpt lon="99.710541" lat="12.917948">
                <ele>71.755493</ele>
                <time>2006-02-25T10:17:11Z</time>
            </trkpt>
            <trkpt lon="99.710884" lat="12.917411">
                <ele>76.081421</ele>
                <time>2006-02-25T10:17:29Z</time>
            </trkpt>
            <trkpt lon="99.711313" lat="12.916639">
                <ele>76.081421</ele>
                <time>2006-02-25T10:17:50Z</time>
            </trkpt>
            <trkpt lon="99.711635" lat="12.915995">
                <ele>74.639526</ele>
                <time>2006-02-25T10:18:05Z</time>
            </trkpt>
            <trkpt lon="99.712107" lat="12.915115">
                <ele>73.678223</ele>
                <time>2006-02-25T10:18:24Z</time>
            </trkpt>
            <trkpt lon="99.712601" lat="12.914257">
                <ele>69.832886</ele>
                <time>2006-02-25T10:18:40Z</time>
            </trkpt>
            <trkpt lon="99.713159" lat="12.913270">
                <ele>71.274902</ele>
                <time>2006-02-25T10:19:00Z</time>
            </trkpt>
            <trkpt lon="99.713674" lat="12.912412">
                <ele>67.429688</ele>
                <time>2006-02-25T10:19:19Z</time>
            </trkpt>
            <trkpt lon="99.714253" lat="12.911575">
                <ele>65.507080</ele>
                <time>2006-02-25T10:19:37Z</time>
            </trkpt>
            <trkpt lon="99.714704" lat="12.910652">
                <ele>63.103638</ele>
                <time>2006-02-25T10:19:55Z</time>
            </trkpt>
            <trkpt lon="99.714768" lat="12.910502">
                <ele>62.622925</ele>
                <time>2006-02-25T10:19:58Z</time>
            </trkpt>
            <trkpt lon="99.714746" lat="12.910223">
                <ele>62.142334</ele>
                <time>2006-02-25T10:20:05Z</time>
            </trkpt>
            <trkpt lon="99.714832" lat="12.910008">
                <ele>63.584351</ele>
                <time>2006-02-25T10:20:12Z</time>
            </trkpt>
            <trkpt lon="99.714875" lat="12.909944">
                <ele>63.103638</ele>
                <time>2006-02-25T10:20:14Z</time>
            </trkpt>
            <trkpt lon="99.715219" lat="12.909858">
                <ele>63.584351</ele>
                <time>2006-02-25T10:20:24Z</time>
            </trkpt>
            <trkpt lon="99.715219" lat="12.909837">
                <ele>63.584351</ele>
                <time>2006-02-25T10:20:25Z</time>
            </trkpt>
            <trkpt lon="99.715626" lat="12.909300">
                <ele>58.777710</ele>
                <time>2006-02-25T10:20:42Z</time>
            </trkpt>
            <trkpt lon="99.716098" lat="12.908635">
                <ele>63.584351</ele>
                <time>2006-02-25T10:21:03Z</time>
            </trkpt>
            <trkpt lon="99.716141" lat="12.908592">
                <ele>66.468262</ele>
                <time>2006-02-25T10:21:16Z</time>
            </trkpt>
            <trkpt lon="99.716163" lat="12.908592">
                <ele>68.871582</ele>
                <time>2006-02-25T10:21:36Z</time>
            </trkpt>
            <trkpt lon="99.716141" lat="12.908571">
                <ele>66.468262</ele>
                <time>2006-02-25T10:22:22Z</time>
            </trkpt>
            <trkpt lon="99.716141" lat="12.908592">
                <ele>67.429688</ele>
                <time>2006-02-25T10:22:27Z</time>
            </trkpt>
            <trkpt lon="99.716120" lat="12.908614">
                <ele>67.429688</ele>
                <time>2006-02-25T10:22:31Z</time>
            </trkpt>
            <trkpt lon="99.715991" lat="12.908807">
                <ele>65.987671</ele>
                <time>2006-02-25T10:22:40Z</time>
            </trkpt>
            <trkpt lon="99.715669" lat="12.909236">
                <ele>64.065063</ele>
                <time>2006-02-25T10:22:54Z</time>
            </trkpt>
            <trkpt lon="99.715304" lat="12.909429">
                <ele>65.026367</ele>
                <time>2006-02-25T10:23:04Z</time>
            </trkpt>
            <trkpt lon="99.715004" lat="12.909322">
                <ele>64.545654</ele>
                <time>2006-02-25T10:23:12Z</time>
            </trkpt>
            <trkpt lon="99.714382" lat="12.909043">
                <ele>65.987671</ele>
                <time>2006-02-25T10:23:30Z</time>
            </trkpt>
            <trkpt lon="99.713931" lat="12.908850">
                <ele>67.910278</ele>
                <time>2006-02-25T10:23:50Z</time>
            </trkpt>
            <trkpt lon="99.713502" lat="12.908592">
                <ele>69.352295</ele>
                <time>2006-02-25T10:24:08Z</time>
            </trkpt>
            <trkpt lon="99.713202" lat="12.908399">
                <ele>69.352295</ele>
                <time>2006-02-25T10:24:21Z</time>
            </trkpt>
            <trkpt lon="99.712923" lat="12.908421">
                <ele>68.390869</ele>
                <time>2006-02-25T10:24:31Z</time>
            </trkpt>
            <trkpt lon="99.712665" lat="12.908335">
                <ele>68.871582</ele>
                <time>2006-02-25T10:24:45Z</time>
            </trkpt>
            <trkpt lon="99.712300" lat="12.908142">
                <ele>71.755493</ele>
                <time>2006-02-25T10:25:04Z</time>
            </trkpt>
            <trkpt lon="99.712000" lat="12.908099">
                <ele>72.716919</ele>
                <time>2006-02-25T10:25:18Z</time>
            </trkpt>
            <trkpt lon="99.711764" lat="12.907884">
                <ele>74.158813</ele>
                <time>2006-02-25T10:25:35Z</time>
            </trkpt>
            <trkpt lon="99.711399" lat="12.907734">
                <ele>77.042847</ele>
                <time>2006-02-25T10:25:53Z</time>
            </trkpt>
            <trkpt lon="99.710991" lat="12.907519">
                <ele>79.926636</ele>
                <time>2006-02-25T10:26:15Z</time>
            </trkpt>
            <trkpt lon="99.710841" lat="12.907455">
                <ele>81.368774</ele>
                <time>2006-02-25T10:26:24Z</time>
            </trkpt>
            <trkpt lon="99.710670" lat="12.907476">
                <ele>80.888184</ele>
                <time>2006-02-25T10:26:39Z</time>
            </trkpt>
            <trkpt lon="99.710541" lat="12.907519">
                <ele>80.888184</ele>
                <time>2006-02-25T10:26:57Z</time>
            </trkpt>
            <trkpt lon="99.710541" lat="12.907519">
                <ele>80.888184</ele>
                <time>2006-02-25T10:26:58Z</time>
            </trkpt>
            <trkpt lon="99.710476" lat="12.907498">
                <ele>80.888184</ele>
                <time>2006-02-25T10:27:18Z</time>
            </trkpt>
            <trkpt lon="99.710326" lat="12.907476">
                <ele>80.888184</ele>
                <time>2006-02-25T10:27:33Z</time>
            </trkpt>
            <trkpt lon="99.709833" lat="12.907412">
                <ele>80.888184</ele>
                <time>2006-02-25T10:27:52Z</time>
            </trkpt>
            <trkpt lon="99.709446" lat="12.907326">
                <ele>82.810791</ele>
                <time>2006-02-25T10:28:07Z</time>
            </trkpt>
            <trkpt lon="99.708910" lat="12.907219">
                <ele>85.694580</ele>
                <time>2006-02-25T10:28:24Z</time>
            </trkpt>
            <trkpt lon="99.708545" lat="12.907090">
                <ele>87.617188</ele>
                <time>2006-02-25T10:28:39Z</time>
            </trkpt>
            <trkpt lon="99.708202" lat="12.906961">
                <ele>88.578735</ele>
                <time>2006-02-25T10:28:52Z</time>
            </trkpt>
            <trkpt lon="99.708073" lat="12.906897">
                <ele>89.059326</ele>
                <time>2006-02-25T10:28:58Z</time>
            </trkpt>
            <trkpt lon="99.707794" lat="12.906747">
                <ele>86.175293</ele>
                <time>2006-02-25T10:29:08Z</time>
            </trkpt>
            <trkpt lon="99.707708" lat="12.906747">
                <ele>86.656006</ele>
                <time>2006-02-25T10:29:23Z</time>
            </trkpt>
            <trkpt lon="99.707558" lat="12.906661">
                <ele>84.252686</ele>
                <time>2006-02-25T10:29:35Z</time>
            </trkpt>
            <trkpt lon="99.707515" lat="12.906682">
                <ele>84.733398</ele>
                <time>2006-02-25T10:29:38Z</time>
            </trkpt>
            <trkpt lon="99.707365" lat="12.907133">
                <ele>85.213989</ele>
                <time>2006-02-25T10:29:53Z</time>
            </trkpt>
            <trkpt lon="99.707129" lat="12.907712">
                <ele>83.771973</ele>
                <time>2006-02-25T10:30:07Z</time>
            </trkpt>
            <trkpt lon="99.706979" lat="12.908077">
                <ele>84.252686</ele>
                <time>2006-02-25T10:30:14Z</time>
            </trkpt>
            <trkpt lon="99.706957" lat="12.908227">
                <ele>82.810791</ele>
                <time>2006-02-25T10:30:17Z</time>
            </trkpt>
            <trkpt lon="99.706893" lat="12.908399">
                <ele>80.888184</ele>
                <time>2006-02-25T10:30:21Z</time>
            </trkpt>
            <trkpt lon="99.706635" lat="12.909000">
                <ele>75.120239</ele>
                <time>2006-02-25T10:30:34Z</time>
            </trkpt>
            <trkpt lon="99.706507" lat="12.909214">
                <ele>74.639526</ele>
                <time>2006-02-25T10:30:40Z</time>
            </trkpt>
            <trkpt lon="99.706421" lat="12.909193">
                <ele>74.639526</ele>
                <time>2006-02-25T10:30:44Z</time>
            </trkpt>
            <trkpt lon="99.706035" lat="12.909129">
                <ele>74.158813</ele>
                <time>2006-02-25T10:30:58Z</time>
            </trkpt>
            <trkpt lon="99.705799" lat="12.909086">
                <ele>73.197632</ele>
                <time>2006-02-25T10:31:04Z</time>
            </trkpt>
            <trkpt lon="99.705434" lat="12.909000">
                <ele>73.678223</ele>
                <time>2006-02-25T10:31:12Z</time>
            </trkpt>
            <trkpt lon="99.705305" lat="12.909000">
                <ele>74.158813</ele>
                <time>2006-02-25T10:31:15Z</time>
            </trkpt>
            <trkpt lon="99.705112" lat="12.908978">
                <ele>72.716919</ele>
                <time>2006-02-25T10:31:19Z</time>
            </trkpt>
            <trkpt lon="99.705026" lat="12.908957">
                <ele>72.236206</ele>
                <time>2006-02-25T10:31:21Z</time>
            </trkpt>
            <trkpt lon="99.704769" lat="12.908936">
                <ele>71.755493</ele>
                <time>2006-02-25T10:31:27Z</time>
            </trkpt>
            <trkpt lon="99.703996" lat="12.908871">
                <ele>71.755493</ele>
                <time>2006-02-25T10:31:44Z</time>
            </trkpt>
            <trkpt lon="99.703825" lat="12.908850">
                <ele>68.390869</ele>
                <time>2006-02-25T10:31:49Z</time>
            </trkpt>
            <trkpt lon="99.703760" lat="12.908957">
                <ele>68.871582</ele>
                <time>2006-02-25T10:31:54Z</time>
            </trkpt>
            <trkpt lon="99.703846" lat="12.909493">
                <ele>71.274902</ele>
                <time>2006-02-25T10:32:08Z</time>
            </trkpt>
            <trkpt lon="99.703975" lat="12.909880">
                <ele>72.236206</ele>
                <time>2006-02-25T10:32:19Z</time>
            </trkpt>
            <trkpt lon="99.704039" lat="12.910588">
                <ele>73.678223</ele>
                <time>2006-02-25T10:32:35Z</time>
            </trkpt>
            <trkpt lon="99.703953" lat="12.911253">
                <ele>71.274902</ele>
                <time>2006-02-25T10:32:50Z</time>
            </trkpt>
            <trkpt lon="99.703932" lat="12.911468">
                <ele>70.794189</ele>
                <time>2006-02-25T10:32:55Z</time>
            </trkpt>
            <trkpt lon="99.703760" lat="12.912176">
                <ele>71.274902</ele>
                <time>2006-02-25T10:33:14Z</time>
            </trkpt>
            <trkpt lon="99.703739" lat="12.912219">
                <ele>71.274902</ele>
                <time>2006-02-25T10:33:16Z</time>
            </trkpt>
            <trkpt lon="99.703374" lat="12.912068">
                <ele>72.716919</ele>
                <time>2006-02-25T10:33:31Z</time>
            </trkpt>
            <trkpt lon="99.702988" lat="12.911768">
                <ele>73.197632</ele>
                <time>2006-02-25T10:33:47Z</time>
            </trkpt>
            <trkpt lon="99.702473" lat="12.911661">
                <ele>74.158813</ele>
                <time>2006-02-25T10:34:02Z</time>
            </trkpt>
            <trkpt lon="99.701593" lat="12.911747">
                <ele>73.678223</ele>
                <time>2006-02-25T10:34:22Z</time>
            </trkpt>
            <trkpt lon="99.700949" lat="12.911854">
                <ele>73.678223</ele>
                <time>2006-02-25T10:34:36Z</time>
            </trkpt>
            <trkpt lon="99.700456" lat="12.911897">
                <ele>75.600830</ele>
                <time>2006-02-25T10:34:52Z</time>
            </trkpt>
            <trkpt lon="99.699984" lat="12.912025">
                <ele>76.562134</ele>
                <time>2006-02-25T10:35:10Z</time>
            </trkpt>
            <trkpt lon="99.699469" lat="12.912111">
                <ele>78.004028</ele>
                <time>2006-02-25T10:35:29Z</time>
            </trkpt>
            <trkpt lon="99.699061" lat="12.912219">
                <ele>78.004028</ele>
                <time>2006-02-25T10:35:47Z</time>
            </trkpt>
            <trkpt lon="99.698846" lat="12.912519">
                <ele>78.484741</ele>
                <time>2006-02-25T10:36:02Z</time>
            </trkpt>
            <trkpt lon="99.698739" lat="12.912905">
                <ele>81.849365</ele>
                <time>2006-02-25T10:36:19Z</time>
            </trkpt>
            <trkpt lon="99.698524" lat="12.913291">
                <ele>82.330078</ele>
                <time>2006-02-25T10:36:35Z</time>
            </trkpt>
            <trkpt lon="99.698310" lat="12.913656">
                <ele>83.291382</ele>
                <time>2006-02-25T10:36:52Z</time>
            </trkpt>
            <trkpt lon="99.698331" lat="12.914128">
                <ele>83.291382</ele>
                <time>2006-02-25T10:37:09Z</time>
            </trkpt>
            <trkpt lon="99.698353" lat="12.914128">
                <ele>82.810791</ele>
                <time>2006-02-25T10:37:19Z</time>
            </trkpt>
            <trkpt lon="99.698331" lat="12.913549">
                <ele>84.252686</ele>
                <time>2006-02-25T10:37:36Z</time>
            </trkpt>
            <trkpt lon="99.698331" lat="12.913034">
                <ele>83.771973</ele>
                <time>2006-02-25T10:37:50Z</time>
            </trkpt>
            <trkpt lon="99.698310" lat="12.912991">
                <ele>83.291382</ele>
                <time>2006-02-25T10:37:51Z</time>
            </trkpt>
            <trkpt lon="99.698267" lat="12.912176">
                <ele>84.733398</ele>
                <time>2006-02-25T10:38:08Z</time>
            </trkpt>
            <trkpt lon="99.697967" lat="12.911425">
                <ele>82.330078</ele>
                <time>2006-02-25T10:38:23Z</time>
            </trkpt>
            <trkpt lon="99.697816" lat="12.910995">
                <ele>83.291382</ele>
                <time>2006-02-25T10:38:35Z</time>
            </trkpt>
            <trkpt lon="99.697516" lat="12.910287">
                <ele>79.446045</ele>
                <time>2006-02-25T10:38:56Z</time>
            </trkpt>
            <trkpt lon="99.697452" lat="12.909837">
                <ele>79.446045</ele>
                <time>2006-02-25T10:39:10Z</time>
            </trkpt>
            <trkpt lon="99.697237" lat="12.909279">
                <ele>82.810791</ele>
                <time>2006-02-25T10:39:29Z</time>
            </trkpt>
            <trkpt lon="99.697130" lat="12.908742">
                <ele>85.213989</ele>
                <time>2006-02-25T10:39:47Z</time>
            </trkpt>
            <trkpt lon="99.697044" lat="12.908185">
                <ele>86.656006</ele>
                <time>2006-02-25T10:40:05Z</time>
            </trkpt>
            <trkpt lon="99.696851" lat="12.907906">
                <ele>86.175293</ele>
                <time>2006-02-25T10:40:17Z</time>
            </trkpt>
            <trkpt lon="99.696357" lat="12.907970">
                <ele>86.175293</ele>
                <time>2006-02-25T10:40:32Z</time>
            </trkpt>
            <trkpt lon="99.695778" lat="12.908034">
                <ele>87.617188</ele>
                <time>2006-02-25T10:40:50Z</time>
            </trkpt>
            <trkpt lon="99.695027" lat="12.908034">
                <ele>88.578735</ele>
                <time>2006-02-25T10:41:10Z</time>
            </trkpt>
            <trkpt lon="99.694383" lat="12.908034">
                <ele>89.539917</ele>
                <time>2006-02-25T10:41:28Z</time>
            </trkpt>
            <trkpt lon="99.693804" lat="12.907991">
                <ele>90.981934</ele>
                <time>2006-02-25T10:41:46Z</time>
            </trkpt>
            <trkpt lon="99.693353" lat="12.907906">
                <ele>92.423950</ele>
                <time>2006-02-25T10:42:04Z</time>
            </trkpt>
            <trkpt lon="99.692988" lat="12.907820">
                <ele>91.943237</ele>
                <time>2006-02-25T10:42:18Z</time>
            </trkpt>
            <trkpt lon="99.692409" lat="12.907691">
                <ele>91.943237</ele>
                <time>2006-02-25T10:42:35Z</time>
            </trkpt>
            <trkpt lon="99.691980" lat="12.907562">
                <ele>91.943237</ele>
                <time>2006-02-25T10:42:49Z</time>
            </trkpt>
            <trkpt lon="99.691594" lat="12.907434">
                <ele>93.865845</ele>
                <time>2006-02-25T10:43:01Z</time>
            </trkpt>
            <trkpt lon="99.690928" lat="12.907240">
                <ele>91.943237</ele>
                <time>2006-02-25T10:43:20Z</time>
            </trkpt>
            <trkpt lon="99.690650" lat="12.907197">
                <ele>92.423950</ele>
                <time>2006-02-25T10:43:31Z</time>
            </trkpt>
            <trkpt lon="99.690177" lat="12.907069">
                <ele>92.423950</ele>
                <time>2006-02-25T10:43:51Z</time>
            </trkpt>
            <trkpt lon="99.689641" lat="12.906919">
                <ele>92.904541</ele>
                <time>2006-02-25T10:44:13Z</time>
            </trkpt>
            <trkpt lon="99.689341" lat="12.906811">
                <ele>93.385132</ele>
                <time>2006-02-25T10:44:28Z</time>
            </trkpt>
            <trkpt lon="99.689062" lat="12.906747">
                <ele>93.865845</ele>
                <time>2006-02-25T10:44:41Z</time>
            </trkpt>
            <trkpt lon="99.689040" lat="12.906640">
                <ele>95.307739</ele>
                <time>2006-02-25T10:44:49Z</time>
            </trkpt>
            <trkpt lon="99.689169" lat="12.906210">
                <ele>98.191895</ele>
                <time>2006-02-25T10:45:08Z</time>
            </trkpt>
            <trkpt lon="99.689190" lat="12.906017">
                <ele>99.633789</ele>
                <time>2006-02-25T10:45:17Z</time>
            </trkpt>
            <trkpt lon="99.689040" lat="12.905953">
                <ele>100.114502</ele>
                <time>2006-02-25T10:45:26Z</time>
            </trkpt>
            <trkpt lon="99.688568" lat="12.905781">
                <ele>100.595093</ele>
                <time>2006-02-25T10:45:43Z</time>
            </trkpt>
            <trkpt lon="99.687710" lat="12.905438">
                <ele>99.633789</ele>
                <time>2006-02-25T10:46:07Z</time>
            </trkpt>
            <trkpt lon="99.687431" lat="12.905331">
                <ele>99.633789</ele>
                <time>2006-02-25T10:46:14Z</time>
            </trkpt>
            <trkpt lon="99.687195" lat="12.905331">
                <ele>99.633789</ele>
                <time>2006-02-25T10:46:20Z</time>
            </trkpt>
            <trkpt lon="99.686637" lat="12.905116">
                <ele>99.633789</ele>
                <time>2006-02-25T10:46:35Z</time>
            </trkpt>
            <trkpt lon="99.686229" lat="12.904944">
                <ele>100.595093</ele>
                <time>2006-02-25T10:46:49Z</time>
            </trkpt>
            <trkpt lon="99.685757" lat="12.904730">
                <ele>101.075684</ele>
                <time>2006-02-25T10:47:05Z</time>
            </trkpt>
            <trkpt lon="99.684985" lat="12.904429">
                <ele>102.517700</ele>
                <time>2006-02-25T10:47:28Z</time>
            </trkpt>
            <trkpt lon="99.684899" lat="12.904408">
                <ele>102.998291</ele>
                <time>2006-02-25T10:47:31Z</time>
            </trkpt>
            <trkpt lon="99.684577" lat="12.904580">
                <ele>102.517700</ele>
                <time>2006-02-25T10:47:43Z</time>
            </trkpt>
            <trkpt lon="99.684491" lat="12.904623">
                <ele>102.998291</ele>
                <time>2006-02-25T10:47:46Z</time>
            </trkpt>
            <trkpt lon="99.684405" lat="12.904601">
                <ele>103.959717</ele>
                <time>2006-02-25T10:47:50Z</time>
            </trkpt>
            <trkpt lon="99.684234" lat="12.904580">
                <ele>104.440430</ele>
                <time>2006-02-25T10:47:58Z</time>
            </trkpt>
            <trkpt lon="99.683955" lat="12.904515">
                <ele>103.959717</ele>
                <time>2006-02-25T10:48:09Z</time>
            </trkpt>
            <trkpt lon="99.683311" lat="12.904580">
                <ele>105.401733</ele>
                <time>2006-02-25T10:48:28Z</time>
            </trkpt>
            <trkpt lon="99.683161" lat="12.904580">
                <ele>104.921021</ele>
                <time>2006-02-25T10:48:32Z</time>
            </trkpt>
            <trkpt lon="99.683032" lat="12.904451">
                <ele>105.882446</ele>
                <time>2006-02-25T10:48:38Z</time>
            </trkpt>
            <trkpt lon="99.683032" lat="12.903700">
                <ele>107.805054</ele>
                <time>2006-02-25T10:48:56Z</time>
            </trkpt>
            <trkpt lon="99.683139" lat="12.902412">
                <ele>103.479004</ele>
                <time>2006-02-25T10:49:22Z</time>
            </trkpt>
            <trkpt lon="99.683139" lat="12.902198">
                <ele>102.998291</ele>
                <time>2006-02-25T10:49:27Z</time>
            </trkpt>
            <trkpt lon="99.683397" lat="12.901340">
                <ele>100.595093</ele>
                <time>2006-02-25T10:49:45Z</time>
            </trkpt>
            <trkpt lon="99.683332" lat="12.901082">
                <ele>100.595093</ele>
                <time>2006-02-25T10:49:51Z</time>
            </trkpt>
            <trkpt lon="99.682796" lat="12.900846">
                <ele>101.556396</ele>
                <time>2006-02-25T10:50:05Z</time>
            </trkpt>
            <trkpt lon="99.682517" lat="12.900717">
                <ele>102.037109</ele>
                <time>2006-02-25T10:50:17Z</time>
            </trkpt>
            <trkpt lon="99.682066" lat="12.900417">
                <ele>103.479004</ele>
                <time>2006-02-25T10:50:33Z</time>
            </trkpt>
            <trkpt lon="99.681659" lat="12.900181">
                <ele>106.363037</ele>
                <time>2006-02-25T10:50:48Z</time>
            </trkpt>
            <trkpt lon="99.681551" lat="12.900224">
                <ele>105.882446</ele>
                <time>2006-02-25T10:50:52Z</time>
            </trkpt>
            <trkpt lon="99.681187" lat="12.900267">
                <ele>105.882446</ele>
                <time>2006-02-25T10:51:04Z</time>
            </trkpt>
            <trkpt lon="99.680672" lat="12.900095">
                <ele>105.882446</ele>
                <time>2006-02-25T10:51:21Z</time>
            </trkpt>
            <trkpt lon="99.680629" lat="12.900074">
                <ele>105.882446</ele>
                <time>2006-02-25T10:51:23Z</time>
            </trkpt>
        </trkseg>
    </trk>
</gpx>